Time,TemperatureF,DewpointF,PressureIn,WindDirection,WindDirectionDegrees,WindSpeedMPH,WindSpeedGustMPH,Humidity,HourlyPrecipIn,Conditions,Clouds,dailyrainin,SoftwareType,DateUTC
2013-11-16 00:00:00,35.4,10.5,29.38,SSW,211,5.8,5.8,35,0.00,,---,0.00,VWS V14.01,2013-11-16 07:00:00,
2013-11-16 00:01:00,35.4,10.5,29.38,SSW,211,4.0,8.1,35,0.00,,---,0.00,VWS V14.01,2013-11-16 07:01:00,
2013-11-16 00:03:00,35.2,11.0,29.38,SSW,200,4.0,5.4,36,0.00,,---,0.00,VWS V14.01,2013-11-16 07:03:00,
2013-11-16 00:04:00,35.1,10.8,29.38,SSW,207,6.3,8.3,36,0.00,,---,0.00,VWS V14.01,2013-11-16 07:04:00,
2013-11-16 00:05:00,35.1,10.8,29.38,SSW,213,7.6,7.6,36,0.00,,---,0.00,VWS V14.01,2013-11-16 07:05:00,
2013-11-16 00:06:00,35.1,11.4,29.38,SSW,194,4.9,5.4,37,0.00,,---,0.00,VWS V14.01,2013-11-16 07:06:00,
2013-11-16 00:08:00,35.1,12.0,29.38,South,183,11.0,11.0,38,0.00,,---,0.00,VWS V14.01,2013-11-16 07:08:00,
2013-11-16 00:09:00,35.1,12.0,29.38,SSW,211,3.6,5.4,38,0.00,,---,0.00,VWS V14.01,2013-11-16 07:09:00,
2013-11-16 00:10:00,34.9,12.4,29.38,SSW,194,8.1,8.1,39,0.00,,---,0.00,VWS V14.01,2013-11-16 07:10:00,
2013-11-16 00:11:00,34.9,13.0,29.38,SSW,212,3.1,5.8,40,0.00,,---,0.00,VWS V14.01,2013-11-16 07:11:00,
2013-11-16 00:13:00,34.7,12.9,29.38,SSW,204,9.6,9.6,40,0.00,,---,0.00,VWS V14.01,2013-11-16 07:13:00,
2013-11-16 00:14:00,34.7,12.9,29.38,SW,221,8.3,8.3,40,0.00,,---,0.00,VWS V14.01,2013-11-16 07:14:00,
2013-11-16 00:15:00,34.7,12.9,29.38,SW,221,6.3,6.7,40,0.00,,---,0.00,VWS V14.01,2013-11-16 07:15:00,
2013-11-16 00:16:00,34.7,12.9,29.38,SSW,209,5.8,5.8,40,0.00,,---,0.00,VWS V14.01,2013-11-16 07:16:00,
2013-11-16 00:18:00,34.5,12.7,29.38,South,190,3.1,4.9,40,0.00,,---,0.00,VWS V14.01,2013-11-16 07:18:00,
2013-11-16 00:19:00,34.5,12.7,29.38,SSW,196,5.8,5.8,40,0.00,,---,0.00,VWS V14.01,2013-11-16 07:19:00,
2013-11-16 00:20:00,34.5,12.7,29.38,SSW,197,5.4,5.8,40,0.00,,---,0.00,VWS V14.01,2013-11-16 07:20:00,
2013-11-16 00:21:00,34.5,12.7,29.38,SSW,201,6.3,8.7,40,0.00,,---,0.00,VWS V14.01,2013-11-16 07:21:00,
2013-11-16 00:23:00,34.3,13.1,29.38,SW,227,2.7,4.5,41,0.00,,---,0.00,VWS V14.01,2013-11-16 07:23:00,
2013-11-16 00:25:00,34.3,13.1,29.38,SW,224,3.1,4.9,41,0.00,,---,0.00,VWS V14.01,2013-11-16 07:25:00,
2013-11-16 00:26:00,34.3,13.1,29.38,SSW,200,7.2,7.2,41,0.00,,---,0.00,VWS V14.01,2013-11-16 07:26:00,
2013-11-16 00:28:00,34.3,13.1,29.38,SSW,200,5.4,7.6,41,0.00,,---,0.00,VWS V14.01,2013-11-16 07:28:00,
2013-11-16 00:30:00,34.3,13.1,29.38,SSW,207,3.6,7.6,41,0.00,,---,0.00,VWS V14.01,2013-11-16 07:30:00,
2013-11-16 00:31:00,34.3,13.1,29.38,South,185,4.0,4.0,41,0.00,,---,0.00,VWS V14.01,2013-11-16 07:31:00,
2013-11-16 00:34:00,34.2,12.9,29.38,SSW,209,5.4,5.4,41,0.00,,---,0.00,VWS V14.01,2013-11-16 07:34:00,
2013-11-16 00:35:00,34.2,13.5,29.38,SSW,204,4.9,5.4,42,0.00,,---,0.00,VWS V14.01,2013-11-16 07:35:00,
2013-11-16 00:36:00,34.0,13.3,29.38,SW,220,3.6,3.6,42,0.00,,---,0.00,VWS V14.01,2013-11-16 07:36:00,
2013-11-16 00:39:00,34.0,13.3,29.38,SSW,201,4.0,4.0,42,0.00,,---,0.00,VWS V14.01,2013-11-16 07:39:00,
2013-11-16 00:40:00,34.0,13.3,29.38,SSW,201,5.8,5.8,42,0.00,,---,0.00,VWS V14.01,2013-11-16 07:40:00,
2013-11-16 00:41:00,34.0,13.3,29.38,SSW,206,3.6,3.6,42,0.00,,---,0.00,VWS V14.01,2013-11-16 07:41:00,
2013-11-16 00:44:00,33.8,13.7,29.38,SW,224,3.1,5.8,43,0.00,,---,0.00,VWS V14.01,2013-11-16 07:44:00,
2013-11-16 00:45:00,33.8,13.7,29.38,SSW,212,3.6,6.3,43,0.00,,---,0.00,VWS V14.01,2013-11-16 07:45:00,
2013-11-16 00:46:00,33.8,13.7,29.38,SSW,205,3.6,3.6,43,0.00,,---,0.00,VWS V14.01,2013-11-16 07:46:00,
2013-11-16 00:47:00,33.8,13.7,29.35,SW,218,3.1,3.1,43,0.00,,---,0.00,VWS V14.01,2013-11-16 07:47:00,
2013-11-16 00:49:00,33.8,13.7,29.35,South,190,6.3,6.3,43,0.00,,---,0.00,VWS V14.01,2013-11-16 07:49:00,
2013-11-16 00:50:00,33.8,13.7,29.35,SSW,209,2.7,3.6,43,0.00,,---,0.00,VWS V14.01,2013-11-16 07:50:00,
2013-11-16 00:51:00,33.8,13.7,29.35,SSW,209,2.7,3.6,43,0.00,,---,0.00,VWS V14.01,2013-11-16 07:51:00,
2013-11-16 00:52:00,33.8,13.7,29.35,SSW,210,2.7,2.7,43,0.00,,---,0.00,VWS V14.01,2013-11-16 07:52:00,
2013-11-16 00:54:00,33.8,13.7,29.35,SW,220,3.1,4.0,43,0.00,,---,0.00,VWS V14.01,2013-11-16 07:54:00,
2013-11-16 00:56:00,33.8,14.2,29.35,South,181,3.6,3.6,44,0.00,,---,0.00,VWS V14.01,2013-11-16 07:56:00,
2013-11-16 00:57:00,33.8,14.2,29.35,SSW,203,3.6,4.0,44,0.00,,---,0.00,VWS V14.01,2013-11-16 07:57:00,
2013-11-16 00:58:00,33.8,14.2,29.35,SSW,204,4.0,4.0,44,0.00,,---,0.00,VWS V14.01,2013-11-16 07:58:00,
2013-11-16 00:59:00,33.8,14.2,29.35,SW,236,3.6,4.0,44,0.00,,---,0.00,VWS V14.01,2013-11-16 07:59:00,
2013-11-16 01:00:00,33.8,14.2,29.35,SW,214,4.0,5.4,44,0.00,,,0.00,VWS V15.00,2013-11-16 08:00:00,
2013-11-16 01:01:00,33.8,14.2,29.35,SSW,195,4.0,4.0,44,0.00,,---,0.00,VWS V14.01,2013-11-16 08:01:00,
2013-11-16 01:03:00,33.8,14.2,29.38,SW,218,3.1,3.6,44,0.00,,---,0.00,VWS V14.01,2013-11-16 08:03:00,
2013-11-16 01:04:00,33.8,14.2,29.38,SW,218,2.2,2.2,44,0.00,,---,0.00,VWS V14.01,2013-11-16 08:04:00,
2013-11-16 01:06:00,33.8,14.2,29.38,SSW,211,3.6,5.4,44,0.00,,---,0.00,VWS V14.01,2013-11-16 08:06:00,
2013-11-16 01:08:00,33.6,14.6,29.38,SW,214,2.7,2.7,45,0.00,,---,0.00,VWS V14.01,2013-11-16 08:08:00,
2013-11-16 01:09:00,33.6,14.1,29.38,SW,214,2.7,2.7,44,0.00,,---,0.00,VWS V14.01,2013-11-16 08:09:00,
2013-11-16 01:11:00,33.6,14.6,29.38,SW,214,0.0,0.0,45,0.00,,---,0.00,VWS V14.01,2013-11-16 08:11:00,
2013-11-16 01:13:00,33.6,14.6,29.38,SSW,212,3.1,4.0,45,0.00,,---,0.00,VWS V14.01,2013-11-16 08:13:00,
2013-11-16 01:14:00,33.6,14.6,29.38,SSW,211,3.1,4.0,45,0.00,,---,0.00,VWS V14.01,2013-11-16 08:14:00,
2013-11-16 01:15:00,34.0,13.9,29.35,South,189,3.1,3.6,43,0.00,,,0.00,VWS V15.00,2013-11-16 08:15:00,
2013-11-16 01:16:00,33.6,14.6,29.38,SSW,211,3.6,3.6,45,0.00,,---,0.00,VWS V14.01,2013-11-16 08:16:00,
2013-11-16 01:17:00,33.6,14.6,29.35,SSW,203,6.3,6.3,45,0.00,,---,0.00,VWS V14.01,2013-11-16 08:17:00,
2013-11-16 01:19:00,33.6,14.6,29.35,SSW,202,4.9,4.9,45,0.00,,---,0.00,VWS V14.01,2013-11-16 08:19:00,
2013-11-16 01:20:00,33.6,14.6,29.35,SSW,200,5.8,5.8,45,0.00,,---,0.00,VWS V14.01,2013-11-16 08:20:00,
2013-11-16 01:21:00,33.6,14.6,29.35,SSW,201,6.3,6.3,45,0.00,,---,0.00,VWS V14.01,2013-11-16 08:21:00,
2013-11-16 01:23:00,33.6,14.6,29.35,SSW,205,3.6,5.4,45,0.00,,---,0.00,VWS V14.01,2013-11-16 08:23:00,
2013-11-16 01:24:00,33.8,14.7,29.35,SSW,202,3.1,3.1,45,0.00,,---,0.00,VWS V14.01,2013-11-16 08:24:00,
2013-11-16 01:25:00,33.8,14.7,29.35,SSW,200,4.5,4.5,45,0.00,,---,0.00,VWS V14.01,2013-11-16 08:25:00,
2013-11-16 01:26:00,33.8,14.7,29.35,SSW,212,3.6,4.0,45,0.00,,---,0.00,VWS V14.01,2013-11-16 08:26:00,
2013-11-16 01:28:00,33.6,14.6,29.35,SSW,207,5.8,5.8,45,0.00,,---,0.00,VWS V14.01,2013-11-16 08:28:00,
2013-11-16 01:29:00,33.6,14.6,29.35,SSW,200,3.6,4.0,45,0.00,,---,0.00,VWS V14.01,2013-11-16 08:29:00,
2013-11-16 01:30:00,33.6,14.6,29.35,SSW,207,3.6,4.0,45,0.00,,---,0.00,VWS V14.01,2013-11-16 08:30:00,
2013-11-16 01:31:00,33.6,14.6,29.35,SSW,202,6.3,6.3,45,0.00,,---,0.00,VWS V14.01,2013-11-16 08:31:00,
2013-11-16 01:32:00,33.6,14.6,29.35,SW,219,4.0,5.4,45,0.00,,---,0.00,VWS V14.01,2013-11-16 08:32:00,
2013-11-16 01:33:00,33.6,14.6,29.35,SSW,203,5.8,5.8,45,0.00,,---,0.00,VWS V14.01,2013-11-16 08:33:00,
2013-11-16 01:35:00,33.8,14.7,29.35,SSW,209,5.4,5.4,45,0.00,,---,0.00,VWS V14.01,2013-11-16 08:35:00,
2013-11-16 01:36:00,33.8,14.7,29.35,SSW,200,5.4,5.4,45,0.00,,---,0.00,VWS V14.01,2013-11-16 08:36:00,
2013-11-16 01:37:00,33.8,14.7,29.35,SSW,200,3.6,4.0,45,0.00,,---,0.00,VWS V14.01,2013-11-16 08:37:00,
2013-11-16 01:38:00,33.8,14.7,29.35,SW,218,3.6,4.0,45,0.00,,---,0.00,VWS V14.01,2013-11-16 08:38:00,
2013-11-16 01:40:00,33.8,14.2,29.35,SSW,203,5.4,5.4,44,0.00,,---,0.00,VWS V14.01,2013-11-16 08:40:00,
2013-11-16 01:41:00,33.8,14.2,29.35,SSW,212,3.6,5.4,44,0.00,,---,0.00,VWS V14.01,2013-11-16 08:41:00,
2013-11-16 01:42:00,33.8,14.2,29.35,SSW,205,5.4,5.4,44,0.00,,---,0.00,VWS V14.01,2013-11-16 08:42:00,
2013-11-16 01:44:00,33.8,14.2,29.35,SSW,205,5.4,5.4,44,0.00,,---,0.00,VWS V14.01,2013-11-16 08:44:00,
2013-11-16 01:45:00,33.8,14.7,29.35,SSW,212,4.9,4.9,45,0.00,,---,0.00,VWS V14.01,2013-11-16 08:45:00,
2013-11-16 01:46:00,33.8,14.7,29.35,SSW,213,4.0,4.9,45,0.00,,---,0.00,VWS V14.01,2013-11-16 08:46:00,
2013-11-16 01:47:00,33.8,14.2,29.35,SSW,212,5.4,5.4,44,0.00,,---,0.00,VWS V14.01,2013-11-16 08:47:00,
2013-11-16 01:49:00,33.8,14.2,29.35,SSW,207,4.0,4.9,44,0.00,,---,0.00,VWS V14.01,2013-11-16 08:49:00,
2013-11-16 01:50:00,33.8,14.2,29.35,SSW,211,4.9,4.9,44,0.00,,---,0.00,VWS V14.01,2013-11-16 08:50:00,
2013-11-16 01:51:00,33.8,14.7,29.35,SSW,211,3.6,4.9,45,0.00,,---,0.00,VWS V14.01,2013-11-16 08:51:00,
2013-11-16 01:52:00,33.8,14.2,29.35,SSW,203,4.9,4.9,44,0.00,,---,0.00,VWS V14.01,2013-11-16 08:52:00,
2013-11-16 01:53:00,33.8,14.2,29.35,SSW,201,4.0,4.9,44,0.00,,---,0.00,VWS V14.01,2013-11-16 08:53:00,
2013-11-16 01:54:00,33.8,14.2,29.35,SW,218,3.6,4.5,44,0.00,,---,0.00,VWS V14.01,2013-11-16 08:54:00,
2013-11-16 01:56:00,33.8,14.2,29.35,SSW,199,5.4,5.8,44,0.00,,---,0.00,VWS V14.01,2013-11-16 08:56:00,
2013-11-16 01:57:00,33.8,14.2,29.35,SW,218,3.1,4.5,44,0.00,,---,0.00,VWS V14.01,2013-11-16 08:57:00,
2013-11-16 01:58:00,33.8,14.2,29.35,SSW,200,4.0,4.5,44,0.00,,---,0.00,VWS V14.01,2013-11-16 08:58:00,
2013-11-16 02:00:00,33.8,14.2,29.35,SW,214,4.0,5.4,44,0.00,,---,0.00,VWS V14.01,2013-11-16 09:00:00,
2013-11-16 02:01:00,33.8,14.2,29.35,South,190,6.3,6.3,44,0.00,,---,0.00,VWS V14.01,2013-11-16 09:01:00,
2013-11-16 02:02:00,33.8,14.2,29.35,SSW,199,4.0,4.9,44,0.00,,---,0.00,VWS V14.01,2013-11-16 09:02:00,
2013-11-16 02:03:00,33.8,14.2,29.35,SSW,205,3.6,5.8,44,0.00,,---,0.00,VWS V14.01,2013-11-16 09:03:00,
2013-11-16 02:05:00,33.8,14.2,29.35,SSW,203,4.0,5.8,44,0.00,,---,0.00,VWS V14.01,2013-11-16 09:05:00,
2013-11-16 02:06:00,33.8,14.2,29.35,SSW,205,4.9,5.8,44,0.00,,---,0.00,VWS V14.01,2013-11-16 09:06:00,
2013-11-16 02:07:00,33.8,14.2,29.35,SSW,211,5.8,5.8,44,0.00,,---,0.00,VWS V14.01,2013-11-16 09:07:00,
2013-11-16 02:08:00,33.8,14.2,29.35,SW,224,5.8,7.6,44,0.00,,---,0.00,VWS V14.01,2013-11-16 09:08:00,
2013-11-16 02:10:00,33.8,14.2,29.35,SSW,196,6.3,6.3,44,0.00,,---,0.00,VWS V14.01,2013-11-16 09:10:00,
2013-11-16 02:11:00,33.8,13.7,29.35,SSW,208,5.4,8.1,43,0.00,,---,0.00,VWS V14.01,2013-11-16 09:11:00,
2013-11-16 02:12:00,33.8,13.7,29.35,SSW,194,5.4,5.4,43,0.00,,---,0.00,VWS V14.01,2013-11-16 09:12:00,
2013-11-16 02:13:00,34.0,13.9,29.35,SSW,204,6.3,6.3,43,0.00,,---,0.00,VWS V14.01,2013-11-16 09:13:00,
2013-11-16 02:15:00,34.0,13.9,29.32,South,188,5.4,5.8,43,0.00,,,0.00,VWS V15.00,2013-11-16 09:15:00,
2013-11-16 02:16:00,34.0,13.9,29.35,SW,234,5.8,5.8,43,0.00,,---,0.00,VWS V14.01,2013-11-16 09:16:00,
2013-11-16 02:18:00,34.0,13.9,29.35,SSW,199,4.5,6.3,43,0.00,,---,0.00,VWS V14.01,2013-11-16 09:18:00,
2013-11-16 02:21:00,34.0,13.9,29.35,SSW,198,5.8,5.8,43,0.00,,---,0.00,VWS V14.01,2013-11-16 09:21:00,
2013-11-16 02:22:00,34.0,13.9,29.35,SSW,211,3.6,3.6,43,0.00,,---,0.00,VWS V14.01,2013-11-16 09:22:00,
2013-11-16 02:24:00,34.0,13.9,29.35,SSW,207,3.1,5.8,43,0.00,,---,0.00,VWS V14.01,2013-11-16 09:24:00,
2013-11-16 02:26:00,34.0,13.9,29.35,SSW,207,5.4,5.4,43,0.00,,---,0.00,VWS V14.01,2013-11-16 09:26:00,
2013-11-16 02:27:00,34.0,13.9,29.35,SSW,210,4.0,4.9,43,0.00,,---,0.00,VWS V14.01,2013-11-16 09:27:00,
2013-11-16 02:29:00,34.0,13.9,29.35,SSW,201,3.6,4.9,43,0.00,,---,0.00,VWS V14.01,2013-11-16 09:29:00,
2013-11-16 02:30:00,33.8,13.7,29.32,SSW,194,4.5,4.5,43,0.00,,,0.00,VWS V15.00,2013-11-16 09:30:00,
2013-11-16 02:31:00,34.0,13.9,29.35,SSW,203,6.3,6.3,43,0.00,,---,0.00,VWS V14.01,2013-11-16 09:31:00,
2013-11-16 02:32:00,34.0,13.9,29.35,SSW,196,4.9,4.9,43,0.00,,---,0.00,VWS V14.01,2013-11-16 09:32:00,
2013-11-16 02:34:00,34.0,13.9,29.35,SW,218,5.8,5.8,43,0.00,,---,0.00,VWS V14.01,2013-11-16 09:34:00,
2013-11-16 02:36:00,34.2,13.5,29.35,SSW,204,5.8,5.8,42,0.00,,---,0.00,VWS V14.01,2013-11-16 09:36:00,
2013-11-16 02:37:00,34.2,13.5,29.35,SSW,211,3.6,6.3,42,0.00,,---,0.00,VWS V14.01,2013-11-16 09:37:00,
2013-11-16 02:39:00,34.2,13.5,29.35,SSW,210,4.0,4.0,42,0.00,,---,0.00,VWS V14.01,2013-11-16 09:39:00,
2013-11-16 02:40:00,34.2,13.5,29.35,SSW,208,4.9,4.9,42,0.00,,---,0.00,VWS V14.01,2013-11-16 09:40:00,
2013-11-16 02:41:00,34.2,13.5,29.35,South,191,5.4,5.4,42,0.00,,---,0.00,VWS V14.01,2013-11-16 09:41:00,
2013-11-16 02:42:00,34.2,13.5,29.35,SSW,194,7.2,7.2,42,0.00,,---,0.00,VWS V14.01,2013-11-16 09:42:00,
2013-11-16 02:44:00,34.2,13.5,29.35,SSW,206,3.1,6.3,42,0.00,,---,0.00,VWS V14.01,2013-11-16 09:44:00,
2013-11-16 02:45:00,34.2,13.5,29.35,SSW,207,6.3,6.3,42,0.00,,---,0.00,VWS V14.01,2013-11-16 09:45:00,
2013-11-16 02:47:00,34.3,13.6,29.32,SSW,203,8.1,8.1,42,0.00,,---,0.00,VWS V14.01,2013-11-16 09:47:00,
2013-11-16 02:50:00,34.3,13.6,29.32,SSW,212,4.0,4.9,42,0.00,,---,0.00,VWS V14.01,2013-11-16 09:50:00,
2013-11-16 02:51:00,34.3,13.6,29.32,SSW,205,4.9,4.9,42,0.00,,---,0.00,VWS V14.01,2013-11-16 09:51:00,
2013-11-16 02:52:00,34.3,13.6,29.32,SSW,212,6.3,6.3,42,0.00,,---,0.00,VWS V14.01,2013-11-16 09:52:00,
2013-11-16 02:53:00,34.3,13.6,29.32,SSW,209,5.8,5.8,42,0.00,,---,0.00,VWS V14.01,2013-11-16 09:53:00,
2013-11-16 02:55:00,34.3,13.6,29.32,SW,234,4.0,4.5,42,0.00,,---,0.00,VWS V14.01,2013-11-16 09:55:00,
2013-11-16 02:56:00,34.3,13.6,29.32,SSW,205,4.0,4.5,42,0.00,,---,0.00,VWS V14.01,2013-11-16 09:56:00,
2013-11-16 02:57:00,34.3,13.6,29.32,SSW,210,5.4,5.4,42,0.00,,---,0.00,VWS V14.01,2013-11-16 09:57:00,
2013-11-16 02:58:00,34.3,13.6,29.32,SW,214,4.0,4.0,42,0.00,,---,0.00,VWS V14.01,2013-11-16 09:58:00,
2013-11-16 03:00:00,34.2,13.5,29.32,South,190,5.8,5.8,42,0.00,,---,0.00,VWS V14.01,2013-11-16 10:00:00,
2013-11-16 03:01:00,34.2,13.5,29.32,South,189,6.3,6.7,42,0.00,,---,0.00,VWS V14.01,2013-11-16 10:01:00,
2013-11-16 03:02:00,34.2,13.5,29.32,SSW,202,7.6,8.1,42,0.00,,---,0.00,VWS V14.01,2013-11-16 10:02:00,
2013-11-16 03:03:00,34.2,13.5,29.32,SSW,211,5.4,5.4,42,0.00,,---,0.00,VWS V14.01,2013-11-16 10:03:00,
2013-11-16 03:06:00,34.2,13.5,29.32,SW,226,5.4,5.4,42,0.00,,---,0.00,VWS V14.01,2013-11-16 10:06:00,
2013-11-16 03:07:00,34.2,13.5,29.32,SW,216,4.9,4.9,42,0.00,,---,0.00,VWS V14.01,2013-11-16 10:07:00,
2013-11-16 03:08:00,34.2,14.0,29.32,SSW,213,4.0,5.8,43,0.00,,---,0.00,VWS V14.01,2013-11-16 10:08:00,
2013-11-16 03:11:00,34.0,13.9,29.32,SSW,194,4.0,5.4,43,0.00,,---,0.00,VWS V14.01,2013-11-16 10:11:00,
2013-11-16 03:12:00,34.0,13.9,29.32,SSW,207,5.8,5.8,43,0.00,,---,0.00,VWS V14.01,2013-11-16 10:12:00,
2013-11-16 03:13:00,34.0,13.9,29.32,SSW,203,5.4,5.4,43,0.00,,---,0.00,VWS V14.01,2013-11-16 10:13:00,
2013-11-16 03:15:00,33.8,13.7,29.29,SSW,196,6.3,6.3,43,0.00,,,0.00,VWS V15.00,2013-11-16 10:15:00,
2013-11-16 03:16:00,34.0,13.9,29.32,SW,216,4.0,5.8,43,0.00,,---,0.00,VWS V14.01,2013-11-16 10:16:00,
2013-11-16 03:17:00,34.0,13.9,29.32,SW,221,3.1,4.0,43,0.00,,---,0.00,VWS V14.01,2013-11-16 10:17:00,
2013-11-16 03:18:00,34.0,13.9,29.32,SW,235,4.0,4.0,43,0.00,,---,0.00,VWS V14.01,2013-11-16 10:18:00,
2013-11-16 03:19:00,33.8,13.7,29.32,SSW,202,3.6,4.9,43,0.00,,---,0.00,VWS V14.01,2013-11-16 10:19:00,
2013-11-16 03:21:00,33.8,13.7,29.32,SW,216,4.0,4.0,43,0.00,,---,0.00,VWS V14.01,2013-11-16 10:21:00,
2013-11-16 03:22:00,33.8,14.2,29.32,SSW,209,4.0,4.0,44,0.00,,---,0.00,VWS V14.01,2013-11-16 10:22:00,
2013-11-16 03:24:00,33.8,13.7,29.32,SSW,203,4.5,6.7,43,0.00,,---,0.00,VWS V14.01,2013-11-16 10:24:00,
2013-11-16 03:26:00,33.8,13.7,29.32,SSW,210,6.3,6.3,43,0.00,,---,0.00,VWS V14.01,2013-11-16 10:26:00,
2013-11-16 03:27:00,33.8,13.7,29.32,SSW,210,5.4,5.8,43,0.00,,---,0.00,VWS V14.01,2013-11-16 10:27:00,
2013-11-16 03:29:00,33.8,13.7,29.32,SSW,193,7.6,7.6,43,0.00,,---,0.00,VWS V14.01,2013-11-16 10:29:00,
2013-11-16 03:30:00,33.8,13.1,29.29,SW,215,5.8,5.8,42,0.00,,,0.00,VWS V15.00,2013-11-16 10:30:00,
2013-11-16 03:31:00,33.8,13.7,29.32,SSW,206,4.0,4.9,43,0.00,,---,0.00,VWS V14.01,2013-11-16 10:31:00,
2013-11-16 03:32:00,33.8,14.2,29.32,SSW,204,2.7,3.1,44,0.00,,---,0.00,VWS V14.01,2013-11-16 10:32:00,
2013-11-16 03:34:00,33.8,13.7,29.32,SSW,202,3.6,5.4,43,0.00,,---,0.00,VWS V14.01,2013-11-16 10:34:00,
2013-11-16 03:36:00,33.8,14.2,29.32,SSW,205,3.6,4.0,44,0.00,,---,0.00,VWS V14.01,2013-11-16 10:36:00,
2013-11-16 03:37:00,33.8,14.2,29.32,SW,224,4.0,4.0,44,0.00,,---,0.00,VWS V14.01,2013-11-16 10:37:00,
2013-11-16 03:38:00,33.8,14.2,29.32,SW,224,3.6,4.0,44,0.00,,---,0.00,VWS V14.01,2013-11-16 10:38:00,
2013-11-16 03:40:00,33.8,14.2,29.32,SSW,209,5.8,5.8,44,0.00,,---,0.00,VWS V14.01,2013-11-16 10:40:00,
2013-11-16 03:41:00,33.8,14.2,29.32,SW,214,3.1,3.6,44,0.00,,---,0.00,VWS V14.01,2013-11-16 10:41:00,
2013-11-16 03:42:00,33.8,14.2,29.32,SSW,210,4.0,4.0,44,0.00,,---,0.00,VWS V14.01,2013-11-16 10:42:00,
2013-11-16 03:43:00,33.8,14.2,29.32,SSW,210,5.4,5.4,44,0.00,,---,0.00,VWS V14.01,2013-11-16 10:43:00,
2013-11-16 03:45:00,33.8,13.7,29.32,SSW,211,3.6,4.0,43,0.00,,---,0.00,VWS V14.01,2013-11-16 10:45:00,
2013-11-16 03:46:00,33.8,13.7,29.32,SSW,202,5.4,5.4,43,0.00,,---,0.00,VWS V14.01,2013-11-16 10:46:00,
2013-11-16 03:47:00,33.8,13.7,29.32,SSW,202,5.4,5.4,43,0.00,,---,0.00,VWS V14.01,2013-11-16 10:47:00,
2013-11-16 03:48:00,33.8,13.7,29.32,SSW,192,9.6,9.6,43,0.00,,---,0.00,VWS V14.01,2013-11-16 10:48:00,
2013-11-16 03:50:00,33.8,13.7,29.32,SSW,213,6.3,6.3,43,0.00,,---,0.00,VWS V14.01,2013-11-16 10:50:00,
2013-11-16 03:51:00,33.8,13.7,29.32,SSW,212,4.9,6.3,43,0.00,,---,0.00,VWS V14.01,2013-11-16 10:51:00,
2013-11-16 03:52:00,34.0,13.9,29.32,SSW,212,3.6,3.6,43,0.00,,---,0.00,VWS V14.01,2013-11-16 10:52:00,
2013-11-16 03:53:00,34.0,13.9,29.32,SSW,208,5.4,5.4,43,0.00,,---,0.00,VWS V14.01,2013-11-16 10:53:00,
2013-11-16 03:55:00,34.0,13.9,29.32,SSW,198,4.9,5.4,43,0.00,,---,0.00,VWS V14.01,2013-11-16 10:55:00,
2013-11-16 03:56:00,33.8,13.7,29.32,SSW,208,5.4,5.4,43,0.00,,---,0.00,VWS V14.01,2013-11-16 10:56:00,
2013-11-16 03:57:00,33.8,13.7,29.32,SW,224,7.6,7.6,43,0.00,,---,0.00,VWS V14.01,2013-11-16 10:57:00,
2013-11-16 03:58:00,33.8,13.7,29.32,SW,221,5.4,6.3,43,0.00,,---,0.00,VWS V14.01,2013-11-16 10:58:00,
2013-11-16 03:59:00,34.0,13.9,29.32,SSW,210,5.8,6.7,43,0.00,,---,0.00,VWS V14.01,2013-11-16 10:59:00,
2013-11-16 04:00:00,34.0,13.9,29.32,SSW,207,4.0,4.0,43,0.00,,---,0.00,VWS V14.01,2013-11-16 11:00:00,
2013-11-16 04:02:00,34.0,13.3,29.29,SSW,196,8.1,8.1,42,0.00,,---,0.00,VWS V14.01,2013-11-16 11:02:00,
2013-11-16 04:03:00,34.0,13.3,29.29,SSW,210,7.6,7.6,42,0.00,,---,0.00,VWS V14.01,2013-11-16 11:03:00,
2013-11-16 04:04:00,34.0,13.9,29.29,SW,216,4.9,5.4,43,0.00,,---,0.00,VWS V14.01,2013-11-16 11:04:00,
2013-11-16 04:07:00,34.0,13.9,29.29,SSW,205,5.4,5.4,43,0.00,,---,0.00,VWS V14.01,2013-11-16 11:07:00,
2013-11-16 04:08:00,34.0,13.9,29.29,SW,216,4.0,6.3,43,0.00,,---,0.00,VWS V14.01,2013-11-16 11:08:00,
2013-11-16 04:10:00,33.8,13.7,29.29,SW,219,5.4,5.8,43,0.00,,---,0.00,VWS V14.01,2013-11-16 11:10:00,
2013-11-16 04:12:00,33.8,13.7,29.29,South,190,5.4,5.4,43,0.00,,---,0.00,VWS V14.01,2013-11-16 11:12:00,
2013-11-16 04:13:00,33.8,13.7,29.29,SSW,196,5.8,5.8,43,0.00,,---,0.00,VWS V14.01,2013-11-16 11:13:00,
2013-11-16 04:15:00,33.8,13.7,29.29,SSW,196,6.3,6.3,43,0.00,,---,0.00,VWS V14.01,2013-11-16 11:15:00,
2013-11-16 04:17:00,33.8,13.7,29.29,SW,226,5.4,5.4,43,0.00,,---,0.00,VWS V14.01,2013-11-16 11:17:00,
2013-11-16 04:18:00,33.8,13.7,29.29,SSW,206,5.4,6.7,43,0.00,,---,0.00,VWS V14.01,2013-11-16 11:18:00,
2013-11-16 04:20:00,33.8,13.1,29.29,SSW,208,5.8,5.8,42,0.00,,---,0.00,VWS V14.01,2013-11-16 11:20:00,
2013-11-16 04:22:00,33.8,13.1,29.29,SW,221,5.8,6.3,42,0.00,,---,0.00,VWS V14.01,2013-11-16 11:22:00,
2013-11-16 04:23:00,33.8,13.1,29.29,SSW,209,8.1,8.1,42,0.00,,---,0.00,VWS V14.01,2013-11-16 11:23:00,
2013-11-16 04:24:00,33.8,13.1,29.29,WSW,243,4.9,5.8,42,0.00,,---,0.00,VWS V14.01,2013-11-16 11:24:00,
2013-11-16 04:25:00,33.8,13.1,29.29,SW,230,6.3,6.3,42,0.00,,---,0.00,VWS V14.01,2013-11-16 11:25:00,
2013-11-16 04:27:00,33.8,13.1,29.29,SSW,207,6.3,6.3,42,0.00,,---,0.00,VWS V14.01,2013-11-16 11:27:00,
2013-11-16 04:28:00,33.8,13.1,29.29,SW,233,4.9,8.1,42,0.00,,---,0.00,VWS V14.01,2013-11-16 11:28:00,
2013-11-16 04:29:00,33.8,13.1,29.29,WSW,238,3.1,5.4,42,0.00,,---,0.00,VWS V14.01,2013-11-16 11:29:00,
2013-11-16 04:30:00,33.8,13.1,29.29,SW,215,5.8,5.8,42,0.00,,---,0.00,VWS V14.01,2013-11-16 11:30:00,
2013-11-16 04:33:00,33.8,13.1,29.29,SSW,206,6.3,8.3,42,0.00,,---,0.00,VWS V14.01,2013-11-16 11:33:00,
2013-11-16 04:34:00,33.8,13.1,29.29,SSW,203,6.3,6.3,42,0.00,,---,0.00,VWS V14.01,2013-11-16 11:34:00,
2013-11-16 04:35:00,33.8,13.1,29.29,South,191,7.6,8.7,42,0.00,,---,0.00,VWS V14.01,2013-11-16 11:35:00,
2013-11-16 04:38:00,33.8,13.1,29.29,SSW,207,4.0,4.9,42,0.00,,---,0.00,VWS V14.01,2013-11-16 11:38:00,
2013-11-16 04:39:00,33.8,13.1,29.29,SW,223,3.6,4.9,42,0.00,,---,0.00,VWS V14.01,2013-11-16 11:39:00,
2013-11-16 04:40:00,33.6,13.5,29.29,SW,227,5.4,5.4,43,0.00,,---,0.00,VWS V14.01,2013-11-16 11:40:00,
2013-11-16 04:43:00,33.6,13.0,29.29,SSW,211,7.6,7.6,42,0.00,,---,0.00,VWS V14.01,2013-11-16 11:43:00,
2013-11-16 04:44:00,33.6,13.0,29.29,SSW,194,6.3,8.1,42,0.00,,---,0.00,VWS V14.01,2013-11-16 11:44:00,
2013-11-16 04:45:00,33.6,13.0,29.29,South,185,6.3,7.2,42,0.00,,---,0.00,VWS V14.01,2013-11-16 11:45:00,
2013-11-16 04:46:00,33.6,13.0,29.29,SSW,199,5.4,5.8,42,0.00,,---,0.00,VWS V14.01,2013-11-16 11:46:00,
2013-11-16 04:48:00,33.6,13.0,29.29,SW,214,5.4,6.3,42,0.00,,---,0.00,VWS V14.01,2013-11-16 11:48:00,
2013-11-16 04:49:00,33.6,13.0,29.29,SSW,205,7.6,8.1,42,0.00,,---,0.00,VWS V14.01,2013-11-16 11:49:00,
2013-11-16 04:50:00,33.6,13.0,29.29,SW,220,5.8,7.6,42,0.00,,---,0.00,VWS V14.01,2013-11-16 11:50:00,
2013-11-16 04:51:00,33.6,13.0,29.29,SSW,197,6.3,7.6,42,0.00,,---,0.00,VWS V14.01,2013-11-16 11:51:00,
2013-11-16 04:53:00,33.6,13.5,29.29,SW,214,8.1,8.1,43,0.00,,---,0.00,VWS V14.01,2013-11-16 11:53:00,
2013-11-16 04:54:00,33.6,13.5,29.29,SSW,197,8.3,8.3,43,0.00,,---,0.00,VWS V14.01,2013-11-16 11:54:00,
2013-11-16 04:55:00,33.6,13.5,29.29,SSW,206,8.3,8.3,43,0.00,,---,0.00,VWS V14.01,2013-11-16 11:55:00,
2013-11-16 04:56:00,33.6,13.5,29.29,SSW,211,6.3,6.3,43,0.00,,---,0.00,VWS V14.01,2013-11-16 11:56:00,
2013-11-16 04:58:00,33.4,13.4,29.29,SSW,200,4.9,6.3,43,0.00,,---,0.00,VWS V14.01,2013-11-16 11:58:00,
2013-11-16 04:59:00,33.4,13.4,29.29,SSW,208,5.8,6.3,43,0.00,,---,0.00,VWS V14.01,2013-11-16 11:59:00,
2013-11-16 05:00:00,33.4,13.4,29.29,SW,219,6.3,6.7,43,0.00,,---,0.00,VWS V14.01,2013-11-16 12:00:00,
2013-11-16 05:01:00,33.4,13.4,29.29,SSW,205,5.8,6.3,43,0.00,,---,0.00,VWS V14.01,2013-11-16 12:01:00,
2013-11-16 05:03:00,33.3,13.2,29.29,SSW,193,5.8,7.6,43,0.00,,---,0.00,VWS V14.01,2013-11-16 12:03:00,
2013-11-16 05:04:00,33.3,13.2,29.29,South,172,7.6,7.6,43,0.00,,---,0.00,VWS V14.01,2013-11-16 12:04:00,
2013-11-16 05:05:00,33.3,13.2,29.29,SW,224,5.8,7.2,43,0.00,,---,0.00,VWS V14.01,2013-11-16 12:05:00,
2013-11-16 05:06:00,33.3,13.2,29.29,SSW,204,5.4,5.8,43,0.00,,---,0.00,VWS V14.01,2013-11-16 12:06:00,
2013-11-16 05:09:00,33.3,13.2,29.29,SSW,211,5.4,5.4,43,0.00,,---,0.00,VWS V14.01,2013-11-16 12:09:00,
2013-11-16 05:10:00,33.3,13.2,29.29,SW,215,5.8,5.8,43,0.00,,---,0.00,VWS V14.01,2013-11-16 12:10:00,
2013-11-16 05:11:00,33.3,13.2,29.29,SSW,200,6.7,6.7,43,0.00,,---,0.00,VWS V14.01,2013-11-16 12:11:00,
2013-11-16 05:12:00,33.3,13.2,29.29,SSW,202,6.3,8.3,43,0.00,,---,0.00,VWS V14.01,2013-11-16 12:12:00,
2013-11-16 05:14:00,33.3,13.2,29.29,SW,231,5.8,6.3,43,0.00,,---,0.00,VWS V14.01,2013-11-16 12:14:00,
2013-11-16 05:15:00,33.3,13.2,29.29,South,185,6.7,6.7,43,0.00,,---,0.00,VWS V14.01,2013-11-16 12:15:00,
2013-11-16 05:16:00,33.3,13.2,29.29,SSW,192,8.3,8.3,43,0.00,,---,0.00,VWS V14.01,2013-11-16 12:16:00,
2013-11-16 05:17:00,33.3,13.2,29.29,SSW,199,5.8,5.8,43,0.00,,---,0.00,VWS V14.01,2013-11-16 12:17:00,
2013-11-16 05:19:00,33.3,13.2,29.29,SSW,207,5.4,5.4,43,0.00,,---,0.00,VWS V14.01,2013-11-16 12:19:00,
2013-11-16 05:20:00,33.3,13.2,29.29,SSW,203,6.3,6.3,43,0.00,,---,0.00,VWS V14.01,2013-11-16 12:20:00,
2013-11-16 05:21:00,33.3,13.2,29.29,SSW,212,4.0,4.0,43,0.00,,---,0.00,VWS V14.01,2013-11-16 12:21:00,
2013-11-16 05:22:00,33.3,13.2,29.29,South,187,6.3,6.3,43,0.00,,---,0.00,VWS V14.01,2013-11-16 12:22:00,
2013-11-16 05:24:00,33.3,13.2,29.29,SSW,203,4.0,4.9,43,0.00,,---,0.00,VWS V14.01,2013-11-16 12:24:00,
2013-11-16 05:25:00,33.3,13.2,29.29,SSW,203,5.4,5.4,43,0.00,,---,0.00,VWS V14.01,2013-11-16 12:25:00,
2013-11-16 05:26:00,33.3,13.2,29.29,SSW,203,4.0,4.0,43,0.00,,---,0.00,VWS V14.01,2013-11-16 12:26:00,
2013-11-16 05:27:00,33.3,13.2,29.29,SSW,203,6.3,6.3,43,0.00,,---,0.00,VWS V14.01,2013-11-16 12:27:00,
2013-11-16 05:29:00,33.1,13.0,29.29,SW,218,5.8,5.8,43,0.00,,---,0.00,VWS V14.01,2013-11-16 12:29:00,
2013-11-16 05:30:00,33.1,13.0,29.29,SW,226,4.0,4.0,43,0.00,,---,0.00,VWS V14.01,2013-11-16 12:30:00,
2013-11-16 05:31:00,33.1,13.0,29.29,SW,221,5.4,6.3,43,0.00,,---,0.00,VWS V14.01,2013-11-16 12:31:00,
2013-11-16 05:32:00,33.1,13.0,29.29,SSW,203,6.3,6.3,43,0.00,,---,0.00,VWS V14.01,2013-11-16 12:32:00,
2013-11-16 05:34:00,33.1,13.0,29.29,SSW,213,3.6,4.9,43,0.00,,---,0.00,VWS V14.01,2013-11-16 12:34:00,
2013-11-16 05:35:00,33.1,13.0,29.29,SSW,209,5.4,5.4,43,0.00,,---,0.00,VWS V14.01,2013-11-16 12:35:00,
2013-11-16 05:36:00,33.1,13.0,29.29,SSW,211,4.9,4.9,43,0.00,,---,0.00,VWS V14.01,2013-11-16 12:36:00,
2013-11-16 05:38:00,33.1,13.0,29.29,SSW,205,4.9,4.9,43,0.00,,---,0.00,VWS V14.01,2013-11-16 12:38:00,
2013-11-16 05:39:00,33.1,13.0,29.29,SSW,208,3.6,4.0,43,0.00,,---,0.00,VWS V14.01,2013-11-16 12:39:00,
2013-11-16 05:40:00,33.1,13.0,29.29,SSW,210,4.0,4.9,43,0.00,,---,0.00,VWS V14.01,2013-11-16 12:40:00,
2013-11-16 05:41:00,33.1,13.0,29.29,SSW,203,4.9,4.9,43,0.00,,---,0.00,VWS V14.01,2013-11-16 12:41:00,
2013-11-16 05:43:00,33.1,13.0,29.29,SSW,207,4.9,4.9,43,0.00,,---,0.00,VWS V14.01,2013-11-16 12:43:00,
2013-11-16 05:44:00,33.1,13.0,29.29,SSW,209,3.1,3.6,43,0.00,,---,0.00,VWS V14.01,2013-11-16 12:44:00,
2013-11-16 05:45:00,33.1,13.0,29.29,SSW,203,4.0,4.9,43,0.00,,---,0.00,VWS V14.01,2013-11-16 12:45:00,
2013-11-16 05:46:00,33.1,13.0,29.29,SSW,202,6.7,6.7,43,0.00,,---,0.00,VWS V14.01,2013-11-16 12:46:00,
2013-11-16 05:48:00,33.1,12.5,29.29,SSW,210,6.3,6.7,42,0.00,,---,0.00,VWS V14.01,2013-11-16 12:48:00,
2013-11-16 05:49:00,33.1,12.5,29.29,SSW,200,5.4,5.4,42,0.00,,---,0.00,VWS V14.01,2013-11-16 12:49:00,
2013-11-16 05:50:00,33.3,12.7,29.29,SW,234,2.7,4.9,42,0.00,,---,0.00,VWS V14.01,2013-11-16 12:50:00,
2013-11-16 05:51:00,33.3,12.7,29.29,SSW,204,5.8,7.6,42,0.00,,---,0.00,VWS V14.01,2013-11-16 12:51:00,
2013-11-16 05:52:00,33.3,12.7,29.29,SSW,199,8.7,8.7,42,0.00,,---,0.00,VWS V14.01,2013-11-16 12:52:00,
2013-11-16 05:53:00,33.3,12.7,29.29,SSW,200,6.3,8.3,42,0.00,,---,0.00,VWS V14.01,2013-11-16 12:53:00,
2013-11-16 05:54:00,33.3,12.7,29.29,SW,220,3.6,4.0,42,0.00,,---,0.00,VWS V14.01,2013-11-16 12:54:00,
2013-11-16 05:55:00,33.3,12.7,29.29,SSW,197,5.4,5.4,42,0.00,,---,0.00,VWS V14.01,2013-11-16 12:55:00,
2013-11-16 05:56:00,33.3,12.7,29.29,SW,216,5.4,5.8,42,0.00,,---,0.00,VWS V14.01,2013-11-16 12:56:00,
2013-11-16 05:57:00,33.3,12.7,29.29,SW,235,4.0,4.0,42,0.00,,---,0.00,VWS V14.01,2013-11-16 12:57:00,
2013-11-16 05:58:00,33.3,12.7,29.29,SSW,202,4.9,4.9,42,0.00,,---,0.00,VWS V14.01,2013-11-16 12:58:00,
2013-11-16 06:00:00,33.3,12.7,29.29,SSW,192,5.4,6.3,42,0.00,,---,0.00,VWS V14.01,2013-11-16 13:00:00,
2013-11-16 06:02:00,33.4,12.8,29.26,SSW,207,5.4,5.8,42,0.00,,---,0.00,VWS V14.01,2013-11-16 13:02:00,
2013-11-16 06:03:00,33.3,12.7,29.26,SSW,205,7.6,8.1,42,0.00,,---,0.00,VWS V14.01,2013-11-16 13:03:00,
2013-11-16 06:05:00,33.3,12.7,29.26,SW,216,3.6,3.6,42,0.00,,---,0.00,VWS V14.01,2013-11-16 13:05:00,
2013-11-16 06:06:00,33.3,12.7,29.26,SW,223,5.4,6.3,42,0.00,,---,0.00,VWS V14.01,2013-11-16 13:06:00,
2013-11-16 06:07:00,33.3,12.7,29.26,SW,226,3.6,5.4,42,0.00,,---,0.00,VWS V14.01,2013-11-16 13:07:00,
2013-11-16 06:08:00,33.3,12.7,29.26,SW,229,3.6,3.6,42,0.00,,---,0.00,VWS V14.01,2013-11-16 13:08:00,
2013-11-16 06:10:00,33.3,12.7,29.26,SSW,207,5.4,5.4,42,0.00,,---,0.00,VWS V14.01,2013-11-16 13:10:00,
2013-11-16 06:11:00,33.3,12.7,29.26,West,267,5.4,5.4,42,0.00,,---,0.00,VWS V14.01,2013-11-16 13:11:00,
2013-11-16 06:12:00,33.3,12.7,29.26,SSW,193,5.4,5.4,42,0.00,,---,0.00,VWS V14.01,2013-11-16 13:12:00,
2013-11-16 06:13:00,33.3,12.7,29.26,SW,222,2.7,5.8,42,0.00,,---,0.00,VWS V14.01,2013-11-16 13:13:00,
2013-11-16 06:15:00,33.3,12.7,29.26,SSW,213,5.8,5.8,42,0.00,,---,0.00,VWS V14.01,2013-11-16 13:15:00,
2013-11-16 06:16:00,33.3,12.7,29.26,SW,215,4.9,7.6,42,0.00,,---,0.00,VWS V14.01,2013-11-16 13:16:00,
2013-11-16 06:17:00,33.3,12.7,29.26,SSW,196,7.6,7.6,42,0.00,,---,0.00,VWS V14.01,2013-11-16 13:17:00,
2013-11-16 06:18:00,33.3,12.7,29.26,SSW,197,5.4,6.7,42,0.00,,---,0.00,VWS V14.01,2013-11-16 13:18:00,
2013-11-16 06:20:00,33.3,12.7,29.26,SSW,194,6.3,6.3,42,0.00,,---,0.00,VWS V14.01,2013-11-16 13:20:00,
2013-11-16 06:21:00,33.3,12.7,29.26,SW,215,3.1,5.4,42,0.00,,---,0.00,VWS V14.01,2013-11-16 13:21:00,
2013-11-16 06:22:00,33.3,12.7,29.26,SSW,203,3.6,3.6,42,0.00,,---,0.00,VWS V14.01,2013-11-16 13:22:00,
2013-11-16 06:23:00,33.3,12.7,29.26,SW,220,3.6,5.4,42,0.00,,---,0.00,VWS V14.01,2013-11-16 13:23:00,
2013-11-16 06:25:00,33.3,12.7,29.26,SSW,207,5.4,5.8,42,0.00,,---,0.00,VWS V14.01,2013-11-16 13:25:00,
2013-11-16 06:27:00,33.1,12.5,29.26,SSW,212,5.4,6.3,42,0.00,,---,0.00,VWS V14.01,2013-11-16 13:27:00,
2013-11-16 06:28:00,33.1,12.5,29.26,SW,223,4.0,5.4,42,0.00,,---,0.00,VWS V14.01,2013-11-16 13:28:00,
2013-11-16 06:29:00,33.1,12.5,29.26,SW,225,3.6,5.8,42,0.00,,---,0.00,VWS V14.01,2013-11-16 13:29:00,
2013-11-16 06:30:00,33.1,12.5,29.26,SSW,210,5.4,5.4,42,0.00,,---,0.00,VWS V14.01,2013-11-16 13:30:00,
2013-11-16 06:32:00,33.1,12.5,29.26,SSW,200,5.4,5.4,42,0.00,,---,0.00,VWS V14.01,2013-11-16 13:32:00,
2013-11-16 06:33:00,33.1,12.5,29.26,SSW,197,5.4,5.4,42,0.00,,---,0.00,VWS V14.01,2013-11-16 13:33:00,
2013-11-16 06:34:00,33.1,12.5,29.26,SSW,201,5.8,5.8,42,0.00,,---,0.00,VWS V14.01,2013-11-16 13:34:00,
2013-11-16 06:35:00,33.1,12.5,29.26,SSW,205,3.6,4.0,42,0.00,,---,0.00,VWS V14.01,2013-11-16 13:35:00,
2013-11-16 06:37:00,33.1,12.5,29.26,SW,228,5.4,5.8,42,0.00,,---,0.00,VWS V14.01,2013-11-16 13:37:00,
2013-11-16 06:38:00,33.1,12.5,29.26,SW,220,5.8,5.8,42,0.00,,---,0.00,VWS V14.01,2013-11-16 13:38:00,
2013-11-16 06:39:00,33.1,12.5,29.26,SW,222,4.5,6.3,42,0.00,,---,0.00,VWS V14.01,2013-11-16 13:39:00,
2013-11-16 06:40:00,33.1,12.5,29.26,SSW,210,4.0,5.4,42,0.00,,---,0.00,VWS V14.01,2013-11-16 13:40:00,
2013-11-16 06:42:00,33.1,12.5,29.26,SSW,199,6.3,6.3,42,0.00,,---,0.00,VWS V14.01,2013-11-16 13:42:00,
2013-11-16 06:43:00,33.1,12.5,29.26,SSW,208,5.8,5.8,42,0.00,,---,0.00,VWS V14.01,2013-11-16 13:43:00,
2013-11-16 06:44:00,33.1,12.5,29.26,SW,227,5.4,5.4,42,0.00,,---,0.00,VWS V14.01,2013-11-16 13:44:00,
2013-11-16 06:45:00,33.1,12.5,29.26,SSW,207,7.6,7.6,42,0.00,,---,0.00,VWS V14.01,2013-11-16 13:45:00,
2013-11-16 06:47:00,33.1,12.5,29.26,SW,225,6.3,7.2,42,0.00,,---,0.00,VWS V14.01,2013-11-16 13:47:00,
2013-11-16 06:48:00,33.1,12.5,29.26,SSW,207,5.8,6.7,42,0.00,,---,0.00,VWS V14.01,2013-11-16 13:48:00,
2013-11-16 06:49:00,33.1,12.5,29.26,SSW,207,7.6,7.6,42,0.00,,---,0.00,VWS V14.01,2013-11-16 13:49:00,
2013-11-16 06:50:00,33.1,12.5,29.26,SSW,204,6.3,7.6,42,0.00,,---,0.00,VWS V14.01,2013-11-16 13:50:00,
2013-11-16 06:52:00,33.1,12.5,29.26,SW,223,5.8,7.6,42,0.00,,---,0.00,VWS V14.01,2013-11-16 13:52:00,
2013-11-16 06:53:00,33.1,12.5,29.26,SSW,210,6.3,6.3,42,0.00,,---,0.00,VWS V14.01,2013-11-16 13:53:00,
2013-11-16 06:54:00,33.1,12.5,29.26,SSW,211,7.6,7.6,42,0.00,,---,0.00,VWS V14.01,2013-11-16 13:54:00,
2013-11-16 06:55:00,33.1,12.5,29.26,SSW,211,7.6,7.6,42,0.00,,---,0.00,VWS V14.01,2013-11-16 13:55:00,
2013-11-16 06:56:00,33.1,12.5,29.26,SW,233,8.3,8.3,42,0.00,,---,0.00,VWS V14.01,2013-11-16 13:56:00,
2013-11-16 06:57:00,33.1,12.5,29.26,SSW,211,5.8,5.8,42,0.00,,---,0.00,VWS V14.01,2013-11-16 13:57:00,
2013-11-16 06:58:00,33.1,12.5,29.26,SSW,203,8.7,8.7,42,0.00,,---,0.00,VWS V14.01,2013-11-16 13:58:00,
2013-11-16 06:59:00,33.1,12.5,29.26,SSW,213,8.3,8.3,42,0.00,,---,0.00,VWS V14.01,2013-11-16 13:59:00,
2013-11-16 07:00:00,33.1,12.5,29.26,South,191,8.1,8.1,42,0.00,,---,0.00,VWS V14.01,2013-11-16 14:00:00,
2013-11-16 07:01:00,33.1,12.5,29.26,SSW,196,3.1,8.1,42,0.00,,---,0.00,VWS V14.01,2013-11-16 14:01:00,
2013-11-16 07:02:00,33.3,12.7,29.26,SW,218,5.4,6.3,42,0.00,,---,0.00,VWS V14.01,2013-11-16 14:02:00,
2013-11-16 07:03:00,33.3,12.7,29.26,SSW,206,5.4,5.4,42,0.00,,---,0.00,VWS V14.01,2013-11-16 14:03:00,
2013-11-16 07:05:00,33.3,12.7,29.26,SSW,194,8.7,8.7,42,0.00,,---,0.00,VWS V14.01,2013-11-16 14:05:00,
2013-11-16 07:06:00,33.3,12.7,29.26,SSW,204,5.4,5.4,42,0.00,,---,0.00,VWS V14.01,2013-11-16 14:06:00,
2013-11-16 07:07:00,33.3,12.7,29.26,SSW,202,5.8,5.8,42,0.00,,---,0.00,VWS V14.01,2013-11-16 14:07:00,
2013-11-16 07:08:00,33.3,12.1,29.26,South,182,7.6,7.6,41,0.00,,---,0.00,VWS V14.01,2013-11-16 14:08:00,
2013-11-16 07:11:00,33.3,12.1,29.26,SW,236,8.3,8.3,41,0.00,,---,0.00,VWS V14.01,2013-11-16 14:11:00,
2013-11-16 07:12:00,33.4,12.3,29.26,SSW,203,7.6,7.6,41,0.00,,---,0.00,VWS V14.01,2013-11-16 14:12:00,
2013-11-16 07:13:00,33.4,12.3,29.26,SSW,210,7.6,8.1,41,0.00,,---,0.00,VWS V14.01,2013-11-16 14:13:00,
2013-11-16 07:15:00,33.6,12.4,29.26,SW,225,4.0,6.3,41,0.00,,,0.00,VWS V15.00,2013-11-16 14:15:00,
2013-11-16 07:16:00,33.6,12.4,29.26,SW,214,8.3,8.3,41,0.00,,---,0.00,VWS V14.01,2013-11-16 14:16:00,
2013-11-16 07:17:00,33.6,12.4,29.26,SSW,208,5.4,8.1,41,0.00,,---,0.00,VWS V14.01,2013-11-16 14:17:00,
2013-11-16 07:18:00,33.6,12.4,29.26,SSW,211,5.4,5.4,41,0.00,,---,0.00,VWS V14.01,2013-11-16 14:18:00,
2013-11-16 07:21:00,33.6,12.4,29.26,SSW,203,4.9,4.9,41,0.00,,---,0.00,VWS V14.01,2013-11-16 14:21:00,
2013-11-16 07:22:00,33.6,12.4,29.26,SW,220,5.4,6.3,41,0.00,,---,0.00,VWS V14.01,2013-11-16 14:22:00,
2013-11-16 07:23:00,33.6,12.4,29.26,SSW,204,4.0,5.8,41,0.00,,---,0.00,VWS V14.01,2013-11-16 14:23:00,
2013-11-16 07:26:00,33.6,11.9,29.26,SSW,197,6.3,6.7,40,0.00,,---,0.00,VWS V14.01,2013-11-16 14:26:00,
2013-11-16 07:27:00,33.8,12.1,29.26,SSW,206,6.3,6.3,40,0.00,,---,0.00,VWS V14.01,2013-11-16 14:27:00,
2013-11-16 07:28:00,33.8,12.1,29.26,SSW,212,6.7,6.7,40,0.00,,---,0.00,VWS V14.01,2013-11-16 14:28:00,
2013-11-16 07:29:00,33.8,12.1,29.26,SSW,211,5.4,8.1,40,0.00,,---,0.00,VWS V14.01,2013-11-16 14:29:00,
2013-11-16 07:30:00,33.3,12.7,29.26,SSW,212,8.3,8.3,42,0.00,,,0.00,VWS V15.00,2013-11-16 14:30:00,
2013-11-16 07:31:00,33.8,12.1,29.26,SSW,206,5.4,8.7,40,0.00,,---,0.00,VWS V14.01,2013-11-16 14:31:00,
2013-11-16 07:32:00,33.8,12.1,29.26,SSW,203,5.8,7.6,40,0.00,,---,0.00,VWS V14.01,2013-11-16 14:32:00,
2013-11-16 07:33:00,33.8,12.1,29.26,SSW,206,6.3,6.3,40,0.00,,---,0.00,VWS V14.01,2013-11-16 14:33:00,
2013-11-16 07:34:00,33.8,12.1,29.26,SW,219,8.3,8.3,40,0.00,,---,0.00,VWS V14.01,2013-11-16 14:34:00,
2013-11-16 07:36:00,33.8,12.1,29.26,SSW,197,6.3,6.3,40,0.00,,---,0.00,VWS V14.01,2013-11-16 14:36:00,
2013-11-16 07:37:00,33.8,12.1,29.26,SW,223,5.4,6.3,40,0.00,,---,0.00,VWS V14.01,2013-11-16 14:37:00,
2013-11-16 07:38:00,33.8,12.1,29.26,SSW,207,5.4,9.6,40,0.00,,---,0.00,VWS V14.01,2013-11-16 14:38:00,
2013-11-16 07:39:00,33.8,12.1,29.26,SSW,208,5.8,6.3,40,0.00,,---,0.00,VWS V14.01,2013-11-16 14:39:00,
2013-11-16 07:42:00,34.0,12.2,29.26,SSW,208,5.8,5.8,40,0.00,,---,0.00,VWS V14.01,2013-11-16 14:42:00,
2013-11-16 07:43:00,34.0,12.2,29.26,SSW,200,5.8,5.8,40,0.00,,---,0.00,VWS V14.01,2013-11-16 14:43:00,
2013-11-16 07:45:00,34.0,12.2,29.26,SSW,204,5.4,5.8,40,0.00,,---,0.00,VWS V14.01,2013-11-16 14:45:00,
2013-11-16 07:47:00,34.0,12.2,29.26,SSW,196,6.3,6.3,40,0.00,,---,0.00,VWS V14.01,2013-11-16 14:47:00,
2013-11-16 07:48:00,33.8,12.1,29.26,SSW,208,5.8,5.8,40,0.00,,---,0.00,VWS V14.01,2013-11-16 14:48:00,
2013-11-16 07:50:00,33.8,12.1,29.26,SSW,207,4.0,6.3,40,0.00,,---,0.00,VWS V14.01,2013-11-16 14:50:00,
2013-11-16 07:52:00,33.8,12.1,29.26,SSW,205,6.3,7.6,40,0.00,,---,0.00,VWS V14.01,2013-11-16 14:52:00,
2013-11-16 07:53:00,33.8,12.1,29.26,SSW,208,5.8,5.8,40,0.00,,---,0.00,VWS V14.01,2013-11-16 14:53:00,
2013-11-16 07:55:00,33.8,12.1,29.26,SSW,209,8.1,8.3,40,0.00,,---,0.00,VWS V14.01,2013-11-16 14:55:00,
2013-11-16 07:57:00,33.8,12.1,29.26,SSW,200,8.7,8.7,40,0.00,,---,0.00,VWS V14.01,2013-11-16 14:57:00,
2013-11-16 07:58:00,33.8,12.1,29.26,SW,227,4.9,4.9,40,0.00,,---,0.00,VWS V14.01,2013-11-16 14:58:00,
2013-11-16 08:00:00,33.8,12.1,29.26,SW,226,4.0,6.3,40,0.00,,---,0.00,VWS V14.01,2013-11-16 15:00:00,
2013-11-16 08:02:00,33.8,12.1,29.26,SSW,213,7.6,8.1,40,0.00,,---,0.00,VWS V14.01,2013-11-16 15:02:00,
2013-11-16 08:03:00,33.8,12.1,29.26,SW,218,7.6,7.6,40,0.00,,---,0.00,VWS V14.01,2013-11-16 15:03:00,
2013-11-16 08:04:00,33.8,12.1,29.26,SSW,209,5.4,7.6,40,0.00,,---,0.00,VWS V14.01,2013-11-16 15:04:00,
2013-11-16 08:05:00,33.8,12.1,29.26,South,185,8.3,8.3,40,0.00,,---,0.00,VWS V14.01,2013-11-16 15:05:00,
2013-11-16 08:07:00,33.6,12.4,29.26,SSW,208,4.9,4.9,41,0.00,,---,0.00,VWS V14.01,2013-11-16 15:07:00,
2013-11-16 08:08:00,33.6,12.4,29.26,SSW,195,5.8,6.3,41,0.00,,---,0.00,VWS V14.01,2013-11-16 15:08:00,
2013-11-16 08:09:00,33.6,12.4,29.26,SW,236,3.1,4.9,41,0.00,,---,0.00,VWS V14.01,2013-11-16 15:09:00,
2013-11-16 08:11:00,33.6,12.4,29.26,SSW,210,8.3,8.3,41,0.00,,---,0.00,VWS V14.01,2013-11-16 15:11:00,
2013-11-16 08:12:00,33.6,12.4,29.26,SSW,196,5.4,5.8,41,0.00,,---,0.00,VWS V14.01,2013-11-16 15:12:00,
2013-11-16 08:13:00,33.6,12.4,29.26,SSW,200,7.6,7.6,41,0.00,,---,0.00,VWS V14.01,2013-11-16 15:13:00,
2013-11-16 08:14:00,33.6,12.4,29.26,SW,218,7.6,7.6,41,0.00,,---,0.00,VWS V14.01,2013-11-16 15:14:00,
2013-11-16 08:15:00,33.6,12.4,29.26,WSW,237,3.6,6.3,41,0.00,,---,0.00,VWS V14.01,2013-11-16 15:15:00,
2013-11-16 08:16:00,33.4,12.3,29.26,SSW,203,7.6,10.5,41,0.00,,---,0.00,VWS V14.01,2013-11-16 15:16:00,
2013-11-16 08:17:00,33.4,12.8,29.26,SSW,192,6.7,8.3,42,0.00,,---,0.00,VWS V14.01,2013-11-16 15:17:00,
2013-11-16 08:18:00,33.4,12.8,29.26,SSW,205,6.3,6.3,42,0.00,,---,0.00,VWS V14.01,2013-11-16 15:18:00,
2013-11-16 08:19:00,33.4,12.8,29.26,SSW,210,7.6,7.6,42,0.00,,---,0.00,VWS V14.01,2013-11-16 15:19:00,
2013-11-16 08:20:00,33.4,12.8,29.26,SW,214,5.8,7.6,42,0.00,,---,0.00,VWS V14.01,2013-11-16 15:20:00,
2013-11-16 08:22:00,33.4,12.8,29.26,SSW,203,5.4,5.4,42,0.00,,---,0.00,VWS V14.01,2013-11-16 15:22:00,
2013-11-16 08:23:00,33.3,12.7,29.26,South,186,6.3,6.3,42,0.00,,---,0.00,VWS V14.01,2013-11-16 15:23:00,
2013-11-16 08:24:00,33.3,12.7,29.26,SSW,208,5.4,5.4,42,0.00,,---,0.00,VWS V14.01,2013-11-16 15:24:00,
2013-11-16 08:25:00,33.3,12.7,29.26,SW,230,5.4,6.3,42,0.00,,---,0.00,VWS V14.01,2013-11-16 15:25:00,
2013-11-16 08:27:00,33.3,12.7,29.26,SSW,194,4.0,8.3,42,0.00,,---,0.00,VWS V14.01,2013-11-16 15:27:00,
2013-11-16 08:28:00,33.3,12.7,29.26,SSW,202,5.8,5.8,42,0.00,,---,0.00,VWS V14.01,2013-11-16 15:28:00,
2013-11-16 08:29:00,33.3,12.7,29.26,SSW,205,8.3,8.3,42,0.00,,---,0.00,VWS V14.01,2013-11-16 15:29:00,
2013-11-16 08:30:00,33.3,12.7,29.26,SSW,212,8.3,8.3,42,0.00,,---,0.00,VWS V14.01,2013-11-16 15:30:00,
2013-11-16 08:32:00,33.3,12.7,29.26,SSW,208,7.6,8.3,42,0.00,,---,0.00,VWS V14.01,2013-11-16 15:32:00,
2013-11-16 08:33:00,33.3,12.7,29.26,SSW,212,4.0,5.8,42,0.00,,---,0.00,VWS V14.01,2013-11-16 15:33:00,
2013-11-16 08:34:00,33.3,12.7,29.26,SSW,206,5.8,5.8,42,0.00,,---,0.00,VWS V14.01,2013-11-16 15:34:00,
2013-11-16 08:35:00,33.4,12.8,29.26,SSW,202,7.2,7.2,42,0.00,,---,0.00,VWS V14.01,2013-11-16 15:35:00,
2013-11-16 08:37:00,33.4,12.8,29.26,SSW,210,5.4,5.4,42,0.00,,---,0.00,VWS V14.01,2013-11-16 15:37:00,
2013-11-16 08:38:00,33.4,12.8,29.26,SW,215,5.4,7.2,42,0.00,,---,0.00,VWS V14.01,2013-11-16 15:38:00,
2013-11-16 08:39:00,33.4,12.3,29.26,SSW,211,8.3,8.3,41,0.00,,---,0.00,VWS V14.01,2013-11-16 15:39:00,
2013-11-16 08:40:00,33.6,13.0,29.26,SSW,210,6.3,6.7,42,0.00,,---,0.00,VWS V14.01,2013-11-16 15:40:00,
2013-11-16 08:41:00,33.6,12.4,29.26,SSW,205,5.4,8.1,41,0.00,,---,0.00,VWS V14.01,2013-11-16 15:41:00,
2013-11-16 08:42:00,33.6,13.0,29.26,SSW,192,6.3,6.3,42,0.00,,---,0.00,VWS V14.01,2013-11-16 15:42:00,
2013-11-16 08:43:00,33.6,12.4,29.26,SW,232,5.8,5.8,41,0.00,,---,0.00,VWS V14.01,2013-11-16 15:43:00,
2013-11-16 08:44:00,33.6,12.4,29.26,SSW,211,6.3,6.3,41,0.00,,---,0.00,VWS V14.01,2013-11-16 15:44:00,
2013-11-16 08:45:00,33.6,12.4,29.26,SSW,207,7.6,8.1,41,0.00,,---,0.00,VWS V14.01,2013-11-16 15:45:00,
2013-11-16 08:46:00,33.6,12.4,29.26,SSW,204,5.4,7.6,41,0.00,,---,0.00,VWS V14.01,2013-11-16 15:46:00,
2013-11-16 08:47:00,33.6,12.4,29.26,SSW,210,7.6,7.6,41,0.00,,---,0.00,VWS V14.01,2013-11-16 15:47:00,
2013-11-16 08:48:00,33.6,12.4,29.26,SSW,211,8.3,10.1,41,0.00,,---,0.00,VWS V14.01,2013-11-16 15:48:00,
2013-11-16 08:49:00,33.8,12.6,29.26,SSW,195,7.6,8.3,41,0.00,,---,0.00,VWS V14.01,2013-11-16 15:49:00,
2013-11-16 08:50:00,33.8,12.6,29.26,SW,214,7.2,7.2,41,0.00,,---,0.00,VWS V14.01,2013-11-16 15:50:00,
2013-11-16 08:51:00,33.8,12.6,29.26,SSW,200,6.3,7.2,41,0.00,,---,0.00,VWS V14.01,2013-11-16 15:51:00,
2013-11-16 08:52:00,33.8,12.6,29.26,SW,224,4.0,5.4,41,0.00,,---,0.00,VWS V14.01,2013-11-16 15:52:00,
2013-11-16 08:53:00,33.8,12.6,29.26,SSW,211,6.3,6.3,41,0.00,,---,0.00,VWS V14.01,2013-11-16 15:53:00,
2013-11-16 08:54:00,33.8,12.6,29.26,SSW,201,7.6,7.6,41,0.00,,---,0.00,VWS V14.01,2013-11-16 15:54:00,
2013-11-16 08:56:00,33.8,12.6,29.26,SSW,212,5.8,6.3,41,0.00,,---,0.00,VWS V14.01,2013-11-16 15:56:00,
2013-11-16 08:57:00,33.8,12.6,29.26,SSW,207,8.7,8.7,41,0.00,,---,0.00,VWS V14.01,2013-11-16 15:57:00,
2013-11-16 08:58:00,33.8,12.6,29.26,SSW,204,6.3,6.7,41,0.00,,---,0.00,VWS V14.01,2013-11-16 15:58:00,
2013-11-16 08:59:00,33.8,12.6,29.26,SSW,198,5.8,6.3,41,0.00,,---,0.00,VWS V14.01,2013-11-16 15:59:00,
2013-11-16 09:00:00,36.3,12.6,29.26,SW,214,8.3,8.7,37,0.00,,,0.00,VWS V15.00,2013-11-16 16:00:00,
2013-11-16 09:01:00,33.8,12.6,29.26,SSW,207,4.9,5.8,41,0.00,,---,0.00,VWS V14.01,2013-11-16 16:01:00,
2013-11-16 09:03:00,33.8,12.6,29.26,SSW,202,7.6,7.6,41,0.00,,---,0.00,VWS V14.01,2013-11-16 16:03:00,
2013-11-16 09:04:00,34.0,12.8,29.26,SSW,206,5.8,6.3,41,0.00,,---,0.00,VWS V14.01,2013-11-16 16:04:00,
2013-11-16 09:05:00,34.0,12.8,29.26,SSW,202,8.3,8.3,41,0.00,,---,0.00,VWS V14.01,2013-11-16 16:05:00,
2013-11-16 09:06:00,34.0,12.8,29.26,SSW,194,6.3,6.3,41,0.00,,---,0.00,VWS V14.01,2013-11-16 16:06:00,
2013-11-16 09:08:00,34.0,12.8,29.26,SSW,195,8.1,8.1,41,0.00,,---,0.00,VWS V14.01,2013-11-16 16:08:00,
2013-11-16 09:09:00,34.0,12.2,29.26,SW,236,7.6,9.2,40,0.00,,---,0.00,VWS V14.01,2013-11-16 16:09:00,
2013-11-16 09:10:00,34.0,12.2,29.26,SSW,200,5.4,6.3,40,0.00,,---,0.00,VWS V14.01,2013-11-16 16:10:00,
2013-11-16 09:11:00,34.0,12.2,29.26,SSW,196,5.4,8.3,40,0.00,,---,0.00,VWS V14.01,2013-11-16 16:11:00,
2013-11-16 09:13:00,34.0,12.2,29.26,SSW,200,5.4,6.3,40,0.00,,---,0.00,VWS V14.01,2013-11-16 16:13:00,
2013-11-16 09:14:00,34.0,12.2,29.26,SSW,198,6.3,6.3,40,0.00,,---,0.00,VWS V14.01,2013-11-16 16:14:00,
2013-11-16 09:15:00,37.2,12.1,29.26,SSW,197,7.6,7.6,35,0.00,,,0.00,VWS V15.00,2013-11-16 16:15:00,
2013-11-16 09:16:00,34.0,12.2,29.26,SSW,210,6.3,6.3,40,0.00,,---,0.00,VWS V14.01,2013-11-16 16:16:00,
2013-11-16 09:18:00,34.0,12.2,29.26,SSW,203,5.4,5.8,40,0.00,,---,0.00,VWS V14.01,2013-11-16 16:18:00,
2013-11-16 09:19:00,34.2,12.4,29.26,SSW,206,6.3,6.3,40,0.00,,---,0.00,VWS V14.01,2013-11-16 16:19:00,
2013-11-16 09:21:00,34.2,12.4,29.26,SSW,211,10.1,10.1,40,0.00,,---,0.00,VWS V14.01,2013-11-16 16:21:00,
2013-11-16 09:22:00,34.2,12.4,29.26,SSW,204,5.8,5.8,40,0.00,,---,0.00,VWS V14.01,2013-11-16 16:22:00,
2013-11-16 09:23:00,34.3,12.5,29.26,SSW,206,5.4,7.6,40,0.00,,---,0.00,VWS V14.01,2013-11-16 16:23:00,
2013-11-16 09:24:00,34.3,12.5,29.26,SSW,209,5.4,5.4,40,0.00,,---,0.00,VWS V14.01,2013-11-16 16:24:00,
2013-11-16 09:26:00,34.3,12.5,29.26,SSW,213,5.8,5.8,40,0.00,,---,0.00,VWS V14.01,2013-11-16 16:26:00,
2013-11-16 09:28:00,34.3,12.5,29.26,SSW,206,4.9,4.9,40,0.00,,---,0.00,VWS V14.01,2013-11-16 16:28:00,
2013-11-16 09:29:00,34.3,12.5,29.26,SSW,201,4.9,5.4,40,0.00,,---,0.00,VWS V14.01,2013-11-16 16:29:00,
2013-11-16 09:30:00,34.3,12.5,29.26,SSW,210,5.8,8.3,40,0.00,,---,0.00,VWS V14.01,2013-11-16 16:30:00,
2013-11-16 09:31:00,34.3,12.5,29.26,SSW,205,3.6,5.8,40,0.00,,---,0.00,VWS V14.01,2013-11-16 16:31:00,
2013-11-16 09:34:00,34.5,12.7,29.26,SSW,213,5.4,5.8,40,0.00,,---,0.00,VWS V14.01,2013-11-16 16:34:00,
2013-11-16 09:35:00,34.5,12.7,29.26,SSW,196,7.6,7.6,40,0.00,,---,0.00,VWS V14.01,2013-11-16 16:35:00,
2013-11-16 09:36:00,34.5,12.7,29.26,South,188,6.3,7.6,40,0.00,,---,0.00,VWS V14.01,2013-11-16 16:36:00,
2013-11-16 09:37:00,34.7,12.9,29.26,SSW,204,5.4,6.3,40,0.00,,---,0.00,VWS V14.01,2013-11-16 16:37:00,
2013-11-16 09:39:00,34.7,12.9,29.26,SW,235,6.3,8.1,40,0.00,,---,0.00,VWS V14.01,2013-11-16 16:39:00,
2013-11-16 09:40:00,34.9,13.0,29.26,SW,214,6.3,8.1,40,0.00,,---,0.00,VWS V14.01,2013-11-16 16:40:00,
2013-11-16 09:41:00,34.9,13.0,29.26,SW,215,8.1,8.1,40,0.00,,---,0.00,VWS V14.01,2013-11-16 16:41:00,
2013-11-16 09:42:00,34.9,13.0,29.26,SSW,210,5.4,5.8,40,0.00,,---,0.00,VWS V14.01,2013-11-16 16:42:00,
2013-11-16 09:44:00,35.1,13.2,29.26,SSW,200,7.6,7.6,40,0.00,,---,0.00,VWS V14.01,2013-11-16 16:44:00,
2013-11-16 09:45:00,35.1,12.6,29.26,SW,226,7.6,11.0,39,0.00,,---,0.00,VWS V14.01,2013-11-16 16:45:00,
2013-11-16 09:46:00,35.1,13.2,29.26,SW,214,6.3,6.3,40,0.00,,---,0.00,VWS V14.01,2013-11-16 16:46:00,
2013-11-16 09:47:00,35.2,13.4,29.26,SW,215,7.6,7.6,40,0.00,,---,0.00,VWS V14.01,2013-11-16 16:47:00,
2013-11-16 09:49:00,35.4,12.9,29.26,SSW,207,4.9,7.6,39,0.00,,---,0.00,VWS V14.01,2013-11-16 16:49:00,
2013-11-16 09:50:00,35.4,13.5,29.26,SW,223,5.8,7.6,40,0.00,,---,0.00,VWS V14.01,2013-11-16 16:50:00,
2013-11-16 09:51:00,35.4,12.9,29.26,SSW,205,8.7,8.7,39,0.00,,---,0.00,VWS V14.01,2013-11-16 16:51:00,
2013-11-16 09:52:00,35.6,13.1,29.26,SSW,196,7.6,10.1,39,0.00,,---,0.00,VWS V14.01,2013-11-16 16:52:00,
2013-11-16 09:54:00,35.8,12.7,29.26,SW,227,5.4,7.6,38,0.00,,---,0.00,VWS V14.01,2013-11-16 16:54:00,
2013-11-16 09:55:00,35.8,12.7,29.26,SW,232,8.1,8.1,38,0.00,,---,0.00,VWS V14.01,2013-11-16 16:55:00,
2013-11-16 09:56:00,36.0,12.8,29.26,SSW,202,5.8,5.8,38,0.00,,---,0.00,VWS V14.01,2013-11-16 16:56:00,
2013-11-16 09:57:00,36.0,12.2,29.26,SSW,203,12.3,12.3,37,0.00,,---,0.00,VWS V14.01,2013-11-16 16:57:00,
2013-11-16 09:58:00,36.1,12.4,29.26,SSW,204,8.7,8.7,37,0.00,,---,0.00,VWS V14.01,2013-11-16 16:58:00,
2013-11-16 09:59:00,36.3,12.6,29.26,SSW,202,8.7,8.7,37,0.00,,---,0.00,VWS V14.01,2013-11-16 16:59:00,
2013-11-16 10:00:00,36.3,12.6,29.26,SW,214,8.3,8.7,37,0.00,,---,0.00,VWS V14.01,2013-11-16 17:00:00,
2013-11-16 10:01:00,36.3,12.6,29.26,SW,214,4.9,7.6,37,0.00,,---,0.00,VWS V14.01,2013-11-16 17:01:00,
2013-11-16 10:02:00,36.3,12.6,29.26,West,271,3.6,5.8,37,0.00,,---,0.00,VWS V14.01,2013-11-16 17:02:00,
2013-11-16 10:03:00,36.5,12.7,29.26,South,185,8.7,8.7,37,0.00,,---,0.00,VWS V14.01,2013-11-16 17:03:00,
2013-11-16 10:05:00,36.7,12.9,29.26,SSW,205,8.3,8.3,37,0.00,,---,0.00,VWS V14.01,2013-11-16 17:05:00,
2013-11-16 10:06:00,36.7,12.3,29.26,SSW,197,5.4,5.4,36,0.00,,---,0.00,VWS V14.01,2013-11-16 17:06:00,
2013-11-16 10:07:00,36.7,12.9,29.26,SW,217,5.8,5.8,37,0.00,,---,0.00,VWS V14.01,2013-11-16 17:07:00,
2013-11-16 10:08:00,36.9,12.4,29.26,SSW,203,5.4,5.8,36,0.00,,---,0.00,VWS V14.01,2013-11-16 17:08:00,
2013-11-16 10:09:00,36.9,12.4,29.26,SSE,168,8.3,8.3,36,0.00,,---,0.00,VWS V14.01,2013-11-16 17:09:00,
2013-11-16 10:10:00,36.9,12.4,29.26,SSW,203,7.6,8.3,36,0.00,,---,0.00,VWS V14.01,2013-11-16 17:10:00,
2013-11-16 10:11:00,37.0,12.6,29.26,West,260,6.3,7.2,36,0.00,,---,0.00,VWS V14.01,2013-11-16 17:11:00,
2013-11-16 10:13:00,37.0,12.6,29.26,SSW,194,8.7,8.7,36,0.00,,---,0.00,VWS V14.01,2013-11-16 17:13:00,
2013-11-16 10:14:00,37.0,11.9,29.26,SSW,212,5.8,5.8,35,0.00,,---,0.00,VWS V14.01,2013-11-16 17:14:00,
2013-11-16 10:15:00,37.2,12.1,29.26,SW,216,5.4,5.4,35,0.00,,---,0.00,VWS V14.01,2013-11-16 17:15:00,
2013-11-16 10:16:00,37.2,12.1,29.26,South,190,8.1,8.1,35,0.00,,---,0.00,VWS V14.01,2013-11-16 17:16:00,
2013-11-16 10:18:00,37.4,11.6,29.26,SSW,212,8.1,8.3,34,0.00,,---,0.00,VWS V14.01,2013-11-16 17:18:00,
2013-11-16 10:19:00,37.4,11.6,29.26,SSW,206,6.3,8.3,34,0.00,,---,0.00,VWS V14.01,2013-11-16 17:19:00,
2013-11-16 10:20:00,37.4,12.3,29.26,SW,214,6.3,6.3,35,0.00,,---,0.00,VWS V14.01,2013-11-16 17:20:00,
2013-11-16 10:21:00,37.6,11.8,29.26,SSW,211,5.8,5.8,34,0.00,,---,0.00,VWS V14.01,2013-11-16 17:21:00,
2013-11-16 10:23:00,37.8,12.6,29.26,West,267,5.4,5.4,35,0.00,,---,0.00,VWS V14.01,2013-11-16 17:23:00,
2013-11-16 10:24:00,37.8,11.9,29.26,West,267,5.4,5.4,34,0.00,,---,0.00,VWS V14.01,2013-11-16 17:24:00,
2013-11-16 10:25:00,37.9,12.1,29.26,SSW,202,10.5,10.5,34,0.00,,---,0.00,VWS V14.01,2013-11-16 17:25:00,
2013-11-16 10:26:00,37.9,11.4,29.26,SSW,203,7.6,11.0,33,0.00,,---,0.00,VWS V14.01,2013-11-16 17:26:00,
2013-11-16 10:29:00,37.9,11.4,29.26,SSW,200,8.1,10.1,33,0.00,,---,0.00,VWS V14.01,2013-11-16 17:29:00,
2013-11-16 10:30:00,37.9,11.4,29.26,SSW,197,8.1,12.3,33,0.00,,---,0.00,VWS V14.01,2013-11-16 17:30:00,
2013-11-16 10:32:00,37.8,11.3,29.26,SSW,205,9.6,9.6,33,0.00,,---,0.00,VWS V14.01,2013-11-16 17:32:00,
2013-11-16 10:34:00,37.6,11.1,29.26,SSW,211,6.3,10.5,33,0.00,,---,0.00,VWS V14.01,2013-11-16 17:34:00,
2013-11-16 10:35:00,37.6,11.1,29.26,SSW,199,5.4,5.4,33,0.00,,---,0.00,VWS V14.01,2013-11-16 17:35:00,
2013-11-16 10:36:00,37.6,11.1,29.26,SSW,194,8.1,8.1,33,0.00,,---,0.00,VWS V14.01,2013-11-16 17:36:00,
2013-11-16 10:37:00,37.6,11.8,29.26,SW,218,6.3,7.2,34,0.00,,---,0.00,VWS V14.01,2013-11-16 17:37:00,
2013-11-16 10:39:00,37.8,11.9,29.26,SSW,209,6.3,6.3,34,0.00,,---,0.00,VWS V14.01,2013-11-16 17:39:00,
2013-11-16 10:40:00,37.8,11.3,29.26,SSW,213,5.8,6.3,33,0.00,,---,0.00,VWS V14.01,2013-11-16 17:40:00,
2013-11-16 10:41:00,37.9,12.1,29.26,SSW,207,10.5,10.5,34,0.00,,---,0.00,VWS V14.01,2013-11-16 17:41:00,
2013-11-16 10:42:00,37.8,11.3,29.26,SSW,202,8.3,9.2,33,0.00,,---,0.00,VWS V14.01,2013-11-16 17:42:00,
2013-11-16 10:44:00,37.6,11.1,29.26,SSW,211,5.8,8.3,33,0.00,,---,0.00,VWS V14.01,2013-11-16 17:44:00,
2013-11-16 10:45:00,37.4,10.9,29.26,SW,214,8.1,8.1,33,0.00,,---,0.00,VWS V14.01,2013-11-16 17:45:00,
2013-11-16 10:46:00,37.4,10.9,29.29,South,175,8.7,8.7,33,0.00,,---,0.00,VWS V14.01,2013-11-16 17:46:00,
2013-11-16 10:47:00,37.4,10.9,29.29,SW,218,10.1,10.1,33,0.00,,---,0.00,VWS V14.01,2013-11-16 17:47:00,
2013-11-16 10:49:00,37.2,11.4,29.29,SW,225,5.8,7.2,34,0.00,,---,0.00,VWS V14.01,2013-11-16 17:49:00,
2013-11-16 10:50:00,37.2,11.4,29.29,SSW,193,7.6,7.6,34,0.00,,---,0.00,VWS V14.01,2013-11-16 17:50:00,
2013-11-16 10:51:00,37.2,12.1,29.29,SW,225,5.4,5.4,35,0.00,,---,0.00,VWS V14.01,2013-11-16 17:51:00,
2013-11-16 10:52:00,37.0,11.3,29.29,SSW,205,8.3,8.7,34,0.00,,---,0.00,VWS V14.01,2013-11-16 17:52:00,
2013-11-16 10:54:00,37.0,11.3,29.29,SSW,192,6.3,6.3,34,0.00,,---,0.00,VWS V14.01,2013-11-16 17:54:00,
2013-11-16 10:55:00,37.0,11.3,29.29,SW,220,5.4,6.3,34,0.00,,---,0.00,VWS V14.01,2013-11-16 17:55:00,
2013-11-16 10:56:00,37.0,11.3,29.29,SSW,204,4.0,4.9,34,0.00,,---,0.00,VWS V14.01,2013-11-16 17:56:00,
2013-11-16 10:57:00,37.0,11.3,29.29,SW,226,5.4,6.3,34,0.00,,---,0.00,VWS V14.01,2013-11-16 17:57:00,
2013-11-16 11:00:00,37.0,11.3,29.29,WSW,253,4.5,4.5,34,0.00,,---,0.00,VWS V14.01,2013-11-16 18:00:00,
2013-11-16 11:01:00,37.2,11.4,29.29,West,263,3.6,4.5,34,0.00,,---,0.00,VWS V14.01,2013-11-16 18:01:00,
2013-11-16 11:02:00,37.2,11.4,29.29,SSW,196,5.8,5.8,34,0.00,,---,0.00,VWS V14.01,2013-11-16 18:02:00,
2013-11-16 11:05:00,37.4,11.6,29.29,SSW,201,6.3,6.3,34,0.00,,---,0.00,VWS V14.01,2013-11-16 18:05:00,
2013-11-16 11:06:00,37.4,11.6,29.29,SSW,198,8.3,8.3,34,0.00,,---,0.00,VWS V14.01,2013-11-16 18:06:00,
2013-11-16 11:07:00,37.4,11.6,29.29,SSW,201,5.4,6.3,34,0.00,,---,0.00,VWS V14.01,2013-11-16 18:07:00,
2013-11-16 11:10:00,37.4,11.6,29.29,SW,223,4.9,4.9,34,0.00,,---,0.00,VWS V14.01,2013-11-16 18:10:00,
2013-11-16 11:11:00,37.4,11.6,29.29,WSW,257,5.4,5.4,34,0.00,,---,0.00,VWS V14.01,2013-11-16 18:11:00,
2013-11-16 11:12:00,37.4,11.6,29.29,SW,217,3.6,4.0,34,0.00,,---,0.00,VWS V14.01,2013-11-16 18:12:00,
2013-11-16 11:13:00,37.4,11.6,29.29,SSW,208,7.6,7.6,34,0.00,,---,0.00,VWS V14.01,2013-11-16 18:13:00,
2013-11-16 11:15:00,37.4,11.6,29.29,West,279,6.3,6.3,34,0.00,,---,0.00,VWS V14.01,2013-11-16 18:15:00,
2013-11-16 11:16:00,37.4,11.6,29.26,SW,217,5.8,5.8,34,0.00,,---,0.00,VWS V14.01,2013-11-16 18:16:00,
2013-11-16 11:17:00,37.4,11.6,29.26,South,186,4.9,5.8,34,0.00,,---,0.00,VWS V14.01,2013-11-16 18:17:00,
2013-11-16 11:18:00,37.6,11.8,29.26,South,190,8.1,8.1,34,0.00,,---,0.00,VWS V14.01,2013-11-16 18:18:00,
2013-11-16 11:21:00,37.8,11.9,29.26,SW,220,6.3,8.3,34,0.00,,---,0.00,VWS V14.01,2013-11-16 18:21:00,
2013-11-16 11:22:00,37.9,12.1,29.26,SW,227,3.6,4.9,34,0.00,,---,0.00,VWS V14.01,2013-11-16 18:22:00,
2013-11-16 11:23:00,38.1,12.9,29.26,SW,217,7.6,7.6,35,0.00,,---,0.00,VWS V14.01,2013-11-16 18:23:00,
2013-11-16 11:26:00,38.7,12.1,29.26,SSW,212,7.6,8.1,33,0.00,,---,0.00,VWS V14.01,2013-11-16 18:26:00,
2013-11-16 11:27:00,38.7,12.1,29.26,SSW,212,6.3,8.7,33,0.00,,---,0.00,VWS V14.01,2013-11-16 18:27:00,
2013-11-16 11:28:00,38.7,12.1,29.26,SSW,205,4.9,4.9,33,0.00,,---,0.00,VWS V14.01,2013-11-16 18:28:00,
2013-11-16 11:30:00,40.6,11.6,29.26,West,271,5.4,5.4,30,0.00,,,0.00,VWS V15.00,2013-11-16 18:30:00,
2013-11-16 11:31:00,38.7,12.1,29.26,SSW,200,5.4,8.1,33,0.00,,---,0.00,VWS V14.01,2013-11-16 18:31:00,
2013-11-16 11:32:00,38.7,12.1,29.26,South,188,8.7,10.5,33,0.00,,---,0.00,VWS V14.01,2013-11-16 18:32:00,
2013-11-16 11:33:00,38.8,12.2,29.26,SW,214,4.0,5.8,33,0.00,,---,0.00,VWS V14.01,2013-11-16 18:33:00,
2013-11-16 11:36:00,39.0,11.7,29.26,SSW,199,5.8,5.8,32,0.00,,---,0.00,VWS V14.01,2013-11-16 18:36:00,
2013-11-16 11:37:00,39.0,11.7,29.26,South,189,10.1,10.1,32,0.00,,---,0.00,VWS V14.01,2013-11-16 18:37:00,
2013-11-16 11:38:00,39.2,11.8,29.26,SW,221,5.8,6.3,32,0.00,,---,0.00,VWS V14.01,2013-11-16 18:38:00,
2013-11-16 11:39:00,39.2,11.8,29.26,SW,233,5.8,5.8,32,0.00,,---,0.00,VWS V14.01,2013-11-16 18:39:00,
2013-11-16 11:41:00,39.4,12.0,29.26,SSW,211,5.8,5.8,32,0.00,,---,0.00,VWS V14.01,2013-11-16 18:41:00,
2013-11-16 11:42:00,39.4,12.0,29.26,WNW,282,5.8,5.8,32,0.00,,---,0.00,VWS V14.01,2013-11-16 18:42:00,
2013-11-16 11:43:00,39.7,12.3,29.26,SW,220,10.1,10.1,32,0.00,,---,0.00,VWS V14.01,2013-11-16 18:43:00,
2013-11-16 11:44:00,39.6,12.1,29.26,SW,236,5.4,9.6,32,0.00,,---,0.00,VWS V14.01,2013-11-16 18:44:00,
2013-11-16 11:45:00,41.2,11.4,29.26,SW,216,8.7,10.5,29,0.00,,,0.00,VWS V15.00,2013-11-16 18:45:00,
2013-11-16 11:47:00,39.6,12.1,29.26,SW,214,13.2,13.2,32,0.00,,---,0.00,VWS V14.01,2013-11-16 18:47:00,
2013-11-16 11:48:00,39.6,11.4,29.26,SSW,207,7.6,8.1,31,0.00,,---,0.00,VWS V14.01,2013-11-16 18:48:00,
2013-11-16 11:49:00,39.6,12.1,29.26,SSW,210,5.4,6.3,32,0.00,,---,0.00,VWS V14.01,2013-11-16 18:49:00,
2013-11-16 11:52:00,39.9,11.8,29.26,SSW,209,8.1,8.1,31,0.00,,---,0.00,VWS V14.01,2013-11-16 18:52:00,
2013-11-16 11:53:00,39.9,11.8,29.26,South,186,10.1,10.1,31,0.00,,---,0.00,VWS V14.01,2013-11-16 18:53:00,
2013-11-16 11:54:00,40.1,11.9,29.26,SSW,208,8.1,8.1,31,0.00,,---,0.00,VWS V14.01,2013-11-16 18:54:00,
2013-11-16 11:57:00,40.1,11.9,29.26,SSW,200,8.7,8.7,31,0.00,,---,0.00,VWS V14.01,2013-11-16 18:57:00,
2013-11-16 11:58:00,40.3,12.1,29.26,SSW,195,7.6,8.3,31,0.00,,---,0.00,VWS V14.01,2013-11-16 18:58:00,
2013-11-16 11:59:00,40.1,11.9,29.26,South,191,5.8,8.1,31,0.00,,---,0.00,VWS V14.01,2013-11-16 18:59:00,
2013-11-16 12:00:00,33.8,18.5,29.26,WNW,302,2.7,3.1,53,0.00,,,0.00,VWS V15.00,2013-11-16 19:00:00,
2013-11-16 12:02:00,40.1,11.9,29.23,SSW,207,8.1,8.7,31,0.00,,---,0.00,VWS V14.01,2013-11-16 19:02:00,
2013-11-16 12:03:00,40.1,11.9,29.23,South,184,12.8,12.8,31,0.00,,---,0.00,VWS V14.01,2013-11-16 19:03:00,
2013-11-16 12:04:00,40.1,11.9,29.23,SSW,196,5.4,7.6,31,0.00,,---,0.00,VWS V14.01,2013-11-16 19:04:00,
2013-11-16 12:08:00,39.9,11.8,29.23,SE,142,6.3,6.3,31,0.00,,---,0.00,VWS V14.01,2013-11-16 19:08:00,
2013-11-16 12:09:00,40.1,11.2,29.23,SSW,206,11.0,11.0,30,0.00,,---,0.00,VWS V14.01,2013-11-16 19:09:00,
2013-11-16 12:13:00,39.9,11.8,29.23,WSW,257,4.0,7.6,31,0.00,,---,0.00,VWS V14.01,2013-11-16 19:13:00,
2013-11-16 12:14:00,39.9,11.0,29.23,West,281,4.0,4.0,30,0.00,,---,0.00,VWS V14.01,2013-11-16 19:14:00,
2013-11-16 12:15:00,39.9,11.0,29.23,West,281,4.0,4.0,30,0.00,,---,0.00,VWS V14.01,2013-11-16 19:15:00,
2013-11-16 12:18:00,40.3,11.3,29.26,SW,216,10.1,10.1,30,0.00,,---,0.00,VWS V14.01,2013-11-16 19:18:00,
2013-11-16 12:19:00,40.3,11.3,29.26,SSW,206,10.1,11.0,30,0.00,,---,0.00,VWS V14.01,2013-11-16 19:19:00,
2013-11-16 12:20:00,40.5,11.5,29.26,South,183,11.0,11.0,30,0.00,,---,0.00,VWS V14.01,2013-11-16 19:20:00,
2013-11-16 12:23:00,40.6,11.6,29.26,SSW,212,6.3,6.3,30,0.00,,---,0.00,VWS V14.01,2013-11-16 19:23:00,
2013-11-16 12:24:00,40.6,11.6,29.26,SSW,200,10.1,11.0,30,0.00,,---,0.00,VWS V14.01,2013-11-16 19:24:00,
2013-11-16 12:25:00,40.6,10.9,29.26,SSW,199,7.6,8.7,29,0.00,,---,0.00,VWS V14.01,2013-11-16 19:25:00,
2013-11-16 12:28:00,40.6,11.6,29.26,WNW,297,3.6,5.8,30,0.00,,---,0.00,VWS V14.01,2013-11-16 19:28:00,
2013-11-16 12:29:00,40.6,11.6,29.26,SW,234,4.0,4.0,30,0.00,,---,0.00,VWS V14.01,2013-11-16 19:29:00,
2013-11-16 12:30:00,40.6,11.6,29.26,SW,225,3.6,3.6,30,0.00,,---,0.00,VWS V14.01,2013-11-16 19:30:00,
2013-11-16 12:31:00,40.6,11.6,29.26,West,272,7.2,7.2,30,0.00,,---,0.00,VWS V14.01,2013-11-16 19:31:00,
2013-11-16 12:33:00,40.6,10.9,29.26,West,275,6.3,7.6,29,0.00,,---,0.00,VWS V14.01,2013-11-16 19:33:00,
2013-11-16 12:34:00,40.6,11.6,29.26,SW,233,5.4,5.8,30,0.00,,---,0.00,VWS V14.01,2013-11-16 19:34:00,
2013-11-16 12:35:00,40.5,11.5,29.26,SW,232,3.6,5.8,30,0.00,,---,0.00,VWS V14.01,2013-11-16 19:35:00,
2013-11-16 12:36:00,40.5,11.5,29.26,WSW,243,5.4,5.4,30,0.00,,---,0.00,VWS V14.01,2013-11-16 19:36:00,
2013-11-16 12:39:00,40.6,11.6,29.26,SSW,203,6.7,6.7,30,0.00,,---,0.00,VWS V14.01,2013-11-16 19:39:00,
2013-11-16 12:40:00,40.6,11.6,29.26,SSW,201,8.3,8.7,30,0.00,,---,0.00,VWS V14.01,2013-11-16 19:40:00,
2013-11-16 12:41:00,40.8,11.8,29.26,SSW,207,7.6,7.6,30,0.00,,---,0.00,VWS V14.01,2013-11-16 19:41:00,
2013-11-16 12:44:00,41.2,11.4,29.26,SSW,207,9.2,9.2,29,0.00,,---,0.00,VWS V14.01,2013-11-16 19:44:00,
2013-11-16 12:45:00,41.2,11.4,29.26,SSW,208,8.3,8.7,29,0.00,,---,0.00,VWS V14.01,2013-11-16 19:45:00,
2013-11-16 12:46:00,41.2,11.4,29.26,SW,229,6.3,6.3,29,0.00,,---,0.00,VWS V14.01,2013-11-16 19:46:00,
2013-11-16 12:49:00,40.5,12.2,29.26,NW,320,4.5,4.5,31,0.00,,---,0.00,VWS V14.01,2013-11-16 19:49:00,
2013-11-16 12:50:00,40.3,12.1,29.26,North,357,5.4,5.4,31,0.00,,---,0.00,VWS V14.01,2013-11-16 19:50:00,
2013-11-16 12:51:00,39.9,11.8,29.26,North,0,8.7,8.7,31,0.00,,---,0.00,VWS V14.01,2013-11-16 19:51:00,
2013-11-16 12:54:00,37.6,16.6,29.26,West,278,5.4,8.1,42,0.00,,---,0.00,VWS V14.01,2013-11-16 19:54:00,
2013-11-16 12:55:00,37.0,16.6,29.26,NW,316,5.8,5.8,43,0.00,,---,0.00,VWS V14.01,2013-11-16 19:55:00,
2013-11-16 12:56:00,36.1,16.9,29.26,WNW,294,4.0,6.3,45,0.00,,---,0.00,VWS V14.01,2013-11-16 19:56:00,
2013-11-16 12:57:00,35.6,17.4,29.26,WNW,287,3.6,5.4,47,0.00,,---,0.00,VWS V14.01,2013-11-16 19:57:00,
2013-11-16 12:59:00,34.0,18.7,29.26,NW,309,3.1,3.1,53,0.00,,---,0.00,VWS V14.01,2013-11-16 19:59:00,
2013-11-16 13:00:00,33.8,18.5,29.26,West,281,5.8,5.8,53,0.00,,---,0.00,VWS V14.01,2013-11-16 20:00:00,
2013-11-16 13:01:00,33.3,18.0,29.29,West,264,2.7,3.6,53,0.00,,---,0.00,VWS V14.01,2013-11-16 20:01:00,
2013-11-16 13:02:00,32.9,17.7,29.29,NNW,340,2.7,4.0,53,0.00,,---,0.00,VWS V14.01,2013-11-16 20:02:00,
2013-11-16 13:05:00,32.4,18.0,29.29,SW,234,2.7,3.6,55,0.00,,---,0.00,VWS V14.01,2013-11-16 20:05:00,
2013-11-16 13:06:00,32.2,17.4,29.29,WNW,288,2.2,2.2,54,0.00,,---,0.00,VWS V14.01,2013-11-16 20:06:00,
2013-11-16 13:07:00,32.0,17.2,29.29,West,270,0.0,2.7,54,0.00,,---,0.00,VWS V14.01,2013-11-16 20:07:00,
2013-11-16 13:10:00,32.0,17.2,29.29,West,270,0.0,0.0,54,0.00,,---,0.00,VWS V14.01,2013-11-16 20:10:00,
2013-11-16 13:11:00,32.2,17.4,29.29,West,270,0.0,0.0,54,0.00,,---,0.00,VWS V14.01,2013-11-16 20:11:00,
2013-11-16 13:13:00,32.4,17.6,29.29,WSW,239,0.0,0.0,54,0.00,,---,0.00,VWS V14.01,2013-11-16 20:13:00,
2013-11-16 13:15:00,32.7,17.5,29.29,West,266,0.0,0.0,53,0.00,,---,0.00,VWS V14.01,2013-11-16 20:15:00,
2013-11-16 13:16:00,32.9,17.2,29.29,SSW,198,0.0,0.0,52,0.00,,---,0.00,VWS V14.01,2013-11-16 20:16:00,
2013-11-16 13:17:00,33.3,17.5,29.29,South,176,0.0,0.0,52,0.00,,---,0.00,VWS V14.01,2013-11-16 20:17:00,
2013-11-16 13:18:00,33.6,17.9,29.29,SSE,151,2.7,3.6,52,0.00,,---,0.00,VWS V14.01,2013-11-16 20:18:00,
2013-11-16 13:20:00,34.0,17.8,29.29,SSE,147,0.0,0.0,51,0.00,,---,0.00,VWS V14.01,2013-11-16 20:20:00,
2013-11-16 13:21:00,34.0,17.8,29.29,SSE,147,0.0,0.0,51,0.00,,---,0.00,VWS V14.01,2013-11-16 20:21:00,
2013-11-16 13:22:00,34.0,17.3,29.29,NE,36,0.0,0.0,50,0.00,,---,0.00,VWS V14.01,2013-11-16 20:22:00,
2013-11-16 13:25:00,34.0,15.9,29.29,East,82,0.0,0.0,47,0.00,,---,0.00,VWS V14.01,2013-11-16 20:25:00,
2013-11-16 13:26:00,34.2,16.0,29.29,ENE,73,0.0,0.0,47,0.00,,---,0.00,VWS V14.01,2013-11-16 20:26:00,
2013-11-16 13:27:00,34.2,16.0,29.29,ENE,69,0.0,0.0,47,0.00,,---,0.00,VWS V14.01,2013-11-16 20:27:00,
2013-11-16 13:30:00,34.2,16.0,29.29,North,3,3.6,3.6,47,0.00,,---,0.00,VWS V14.01,2013-11-16 20:30:00,
2013-11-16 13:31:00,34.2,16.0,29.29,WNW,290,3.1,3.6,47,0.00,,---,0.00,VWS V14.01,2013-11-16 20:31:00,
2013-11-16 13:32:00,34.2,15.6,29.29,North,353,0.0,0.0,46,0.00,,---,0.00,VWS V14.01,2013-11-16 20:32:00,
2013-11-16 13:35:00,34.2,16.0,29.29,NW,324,2.2,2.2,47,0.00,,---,0.00,VWS V14.01,2013-11-16 20:35:00,
2013-11-16 13:36:00,34.2,16.0,29.29,NW,321,2.2,2.2,47,0.00,,---,0.00,VWS V14.01,2013-11-16 20:36:00,
2013-11-16 13:37:00,34.2,15.6,29.29,North,6,4.9,5.4,46,0.00,,---,0.00,VWS V14.01,2013-11-16 20:37:00,
2013-11-16 13:38:00,34.2,15.1,29.29,North,11,4.0,4.0,45,0.00,,---,0.00,VWS V14.01,2013-11-16 20:38:00,
2013-11-16 13:41:00,34.2,15.1,29.29,NNE,14,0.0,0.0,45,0.00,,---,0.00,VWS V14.01,2013-11-16 20:41:00,
2013-11-16 13:42:00,34.2,15.1,29.29,NNE,14,0.0,0.0,45,0.00,,---,0.00,VWS V14.01,2013-11-16 20:42:00,
2013-11-16 13:43:00,34.2,15.1,29.29,NNE,14,0.0,0.0,45,0.00,,---,0.00,VWS V14.01,2013-11-16 20:43:00,
2013-11-16 13:45:00,36.3,11.3,29.29,North,349,3.1,3.6,35,0.00,,,0.00,VWS V15.00,2013-11-16 20:45:00,
2013-11-16 13:46:00,34.2,15.1,29.29,NE,39,0.0,0.0,45,0.00,,---,0.00,VWS V14.01,2013-11-16 20:46:00,
2013-11-16 13:47:00,34.0,14.4,29.29,NNE,33,0.0,0.0,44,0.00,,---,0.00,VWS V14.01,2013-11-16 20:47:00,
2013-11-16 13:48:00,34.0,14.4,29.29,North,6,3.1,3.6,44,0.00,,---,0.00,VWS V14.01,2013-11-16 20:48:00,
2013-11-16 13:51:00,34.2,15.1,29.29,North,7,2.7,3.1,45,0.00,,---,0.00,VWS V14.01,2013-11-16 20:51:00,
2013-11-16 13:52:00,34.2,15.1,29.29,North,5,3.1,3.1,45,0.00,,---,0.00,VWS V14.01,2013-11-16 20:52:00,
2013-11-16 13:53:00,34.2,15.6,29.29,NNW,337,3.6,3.6,46,0.00,,---,0.00,VWS V14.01,2013-11-16 20:53:00,
2013-11-16 13:56:00,34.3,15.7,29.29,NNW,345,0.0,2.2,46,0.00,,---,0.00,VWS V14.01,2013-11-16 20:56:00,
2013-11-16 13:57:00,34.3,15.2,29.29,North,11,0.0,0.0,45,0.00,,---,0.00,VWS V14.01,2013-11-16 20:57:00,
2013-11-16 13:58:00,34.3,15.2,29.29,North,6,2.7,2.7,45,0.00,,---,0.00,VWS V14.01,2013-11-16 20:58:00,
2013-11-16 14:00:00,35.8,11.4,29.29,NNW,333,5.4,5.4,36,0.00,,,0.00,VWS V15.00,2013-11-16 21:00:00,
2013-11-16 14:01:00,34.5,15.4,29.29,North,7,2.7,2.7,45,0.00,,---,0.00,VWS V14.01,2013-11-16 21:01:00,
2013-11-16 14:02:00,34.7,15.6,29.29,North,7,0.0,0.0,45,0.00,,---,0.00,VWS V14.01,2013-11-16 21:02:00,
2013-11-16 14:03:00,34.7,15.6,29.29,North,7,0.0,0.0,45,0.00,,---,0.00,VWS V14.01,2013-11-16 21:03:00,
2013-11-16 14:06:00,34.9,15.2,29.29,North,10,0.0,3.1,44,0.00,,---,0.00,VWS V14.01,2013-11-16 21:06:00,
2013-11-16 14:07:00,35.1,15.4,29.29,North,10,3.1,3.1,44,0.00,,---,0.00,VWS V14.01,2013-11-16 21:07:00,
2013-11-16 14:08:00,35.1,15.4,29.29,NNE,16,3.1,3.1,44,0.00,,---,0.00,VWS V14.01,2013-11-16 21:08:00,
2013-11-16 14:11:00,35.1,13.8,29.29,North,357,4.0,4.0,41,0.00,,---,0.00,VWS V14.01,2013-11-16 21:11:00,
2013-11-16 14:12:00,35.1,13.8,29.29,North,3,5.4,5.4,41,0.00,,---,0.00,VWS V14.01,2013-11-16 21:12:00,
2013-11-16 14:13:00,35.1,13.8,29.29,North,353,2.7,2.7,41,0.00,,---,0.00,VWS V14.01,2013-11-16 21:13:00,
2013-11-16 14:15:00,34.3,10.8,29.32,West,262,3.6,3.6,37,0.00,,,0.00,VWS V15.00,2013-11-16 21:15:00,
2013-11-16 14:16:00,35.1,13.8,29.29,North,353,3.6,3.6,41,0.00,,---,0.00,VWS V14.01,2013-11-16 21:16:00,
2013-11-16 14:17:00,35.2,13.9,29.29,North,350,2.2,2.7,41,0.00,,---,0.00,VWS V14.01,2013-11-16 21:17:00,
2013-11-16 14:18:00,35.1,13.8,29.29,NW,321,2.2,3.1,41,0.00,,---,0.00,VWS V14.01,2013-11-16 21:18:00,
2013-11-16 14:19:00,35.1,13.8,29.29,NW,321,2.7,2.7,41,0.00,,---,0.00,VWS V14.01,2013-11-16 21:19:00,
2013-11-16 14:21:00,35.1,13.2,29.29,North,6,5.4,6.3,40,0.00,,---,0.00,VWS V14.01,2013-11-16 21:21:00,
2013-11-16 14:22:00,35.1,13.2,29.29,North,357,2.2,2.7,40,0.00,,---,0.00,VWS V14.01,2013-11-16 21:22:00,
2013-11-16 14:23:00,35.2,13.9,29.29,West,276,3.1,4.0,41,0.00,,---,0.00,VWS V14.01,2013-11-16 21:23:00,
2013-11-16 14:24:00,35.2,13.9,29.29,West,276,2.7,4.0,41,0.00,,---,0.00,VWS V14.01,2013-11-16 21:24:00,
2013-11-16 14:26:00,35.2,13.9,29.29,WNW,300,0.0,0.0,41,0.00,,---,0.00,VWS V14.01,2013-11-16 21:26:00,
2013-11-16 14:27:00,35.2,13.9,29.29,North,0,3.1,3.6,41,0.00,,---,0.00,VWS V14.01,2013-11-16 21:27:00,
2013-11-16 14:28:00,35.2,13.9,29.29,North,353,2.7,4.0,41,0.00,,---,0.00,VWS V14.01,2013-11-16 21:28:00,
2013-11-16 14:29:00,35.2,13.9,29.29,NW,314,2.2,3.6,41,0.00,,---,0.00,VWS V14.01,2013-11-16 21:29:00,
2013-11-16 14:30:00,34.2,12.4,29.32,West,270,0.0,0.0,40,0.00,,,0.00,VWS V15.00,2013-11-16 21:30:00,
2013-11-16 14:32:00,35.4,13.5,29.29,North,357,3.1,3.1,40,0.00,,---,0.00,VWS V14.01,2013-11-16 21:32:00,
2013-11-16 14:33:00,35.4,13.5,29.29,NW,314,3.1,3.1,40,0.00,,---,0.00,VWS V14.01,2013-11-16 21:33:00,
2013-11-16 14:34:00,35.6,13.7,29.29,NW,310,2.7,2.7,40,0.00,,---,0.00,VWS V14.01,2013-11-16 21:34:00,
2013-11-16 14:36:00,35.8,12.7,29.29,WNW,298,4.0,4.0,38,0.00,,---,0.00,VWS V14.01,2013-11-16 21:36:00,
2013-11-16 14:37:00,36.0,13.4,29.29,WNW,287,4.0,4.9,39,0.00,,---,0.00,VWS V14.01,2013-11-16 21:37:00,
2013-11-16 14:38:00,36.1,13.6,29.29,WNW,301,3.1,3.1,39,0.00,,---,0.00,VWS V14.01,2013-11-16 21:38:00,
2013-11-16 14:39:00,36.1,13.6,29.29,WNW,292,4.9,4.9,39,0.00,,---,0.00,VWS V14.01,2013-11-16 21:39:00,
2013-11-16 14:42:00,36.3,13.2,29.29,WNW,293,3.6,4.9,38,0.00,,---,0.00,VWS V14.01,2013-11-16 21:42:00,
2013-11-16 14:43:00,36.3,11.9,29.29,NNW,343,5.4,5.4,36,0.00,,---,0.00,VWS V14.01,2013-11-16 21:43:00,
2013-11-16 14:44:00,36.3,11.3,29.29,North,350,3.1,4.9,35,0.00,,---,0.00,VWS V14.01,2013-11-16 21:44:00,
2013-11-16 14:45:00,35.1,12.0,29.32,West,260,2.7,3.1,38,0.00,,,0.00,VWS V15.00,2013-11-16 21:45:00,
2013-11-16 14:47:00,36.3,10.6,29.29,West,272,2.7,4.0,34,0.00,,---,0.00,VWS V14.01,2013-11-16 21:47:00,
2013-11-16 14:48:00,36.3,11.3,29.29,NW,316,2.7,3.6,35,0.00,,---,0.00,VWS V14.01,2013-11-16 21:48:00,
2013-11-16 14:49:00,36.1,11.1,29.29,North,357,5.8,5.8,35,0.00,,---,0.00,VWS V14.01,2013-11-16 21:49:00,
2013-11-16 14:52:00,36.1,11.1,29.29,NW,307,4.0,4.0,35,0.00,,---,0.00,VWS V14.01,2013-11-16 21:52:00,
2013-11-16 14:53:00,36.1,11.1,29.29,NW,313,3.6,5.8,35,0.00,,---,0.00,VWS V14.01,2013-11-16 21:53:00,
2013-11-16 14:54:00,36.0,11.0,29.29,NNW,344,5.4,5.4,35,0.00,,---,0.00,VWS V14.01,2013-11-16 21:54:00,
2013-11-16 14:57:00,35.8,10.8,29.29,NW,311,2.7,2.7,35,0.00,,---,0.00,VWS V14.01,2013-11-16 21:57:00,
2013-11-16 14:58:00,35.8,10.8,29.29,WNW,303,2.7,4.0,35,0.00,,---,0.00,VWS V14.01,2013-11-16 21:58:00,
2013-11-16 14:59:00,35.8,10.8,29.29,NW,305,5.4,5.4,35,0.00,,---,0.00,VWS V14.01,2013-11-16 21:59:00,
2013-11-16 15:00:00,35.4,11.8,29.35,West,278,0.0,0.0,37,0.00,,,0.00,VWS V15.00,2013-11-16 22:00:00,
2013-11-16 15:02:00,35.6,10.7,29.32,WSW,257,4.0,6.3,35,0.00,,---,0.00,VWS V14.01,2013-11-16 22:02:00,
2013-11-16 15:03:00,35.4,10.5,29.32,West,280,4.9,5.8,35,0.00,,---,0.00,VWS V14.01,2013-11-16 22:03:00,
2013-11-16 15:04:00,35.4,10.5,29.32,WNW,284,4.0,6.3,35,0.00,,---,0.00,VWS V14.01,2013-11-16 22:04:00,
2013-11-16 15:05:00,35.4,11.1,29.32,West,270,5.8,5.8,36,0.00,,---,0.00,VWS V14.01,2013-11-16 22:05:00,
2013-11-16 15:07:00,35.1,11.4,29.32,WNW,292,4.0,5.4,37,0.00,,---,0.00,VWS V14.01,2013-11-16 22:07:00,
2013-11-16 15:09:00,34.9,11.3,29.32,West,268,3.6,4.0,37,0.00,,---,0.00,VWS V14.01,2013-11-16 22:09:00,
2013-11-16 15:10:00,34.9,11.3,29.32,WSW,252,3.1,4.0,37,0.00,,---,0.00,VWS V14.01,2013-11-16 22:10:00,
2013-11-16 15:12:00,34.5,11.5,29.32,SSW,211,2.7,3.6,38,0.00,,---,0.00,VWS V14.01,2013-11-16 22:12:00,
2013-11-16 15:14:00,34.5,12.1,29.32,West,276,5.4,5.4,39,0.00,,---,0.00,VWS V14.01,2013-11-16 22:14:00,
2013-11-16 15:15:00,34.3,10.8,29.32,West,262,3.6,3.6,37,0.00,,---,0.00,VWS V14.01,2013-11-16 22:15:00,
2013-11-16 15:17:00,34.3,10.8,29.32,WSW,238,2.7,3.1,37,0.00,,---,0.00,VWS V14.01,2013-11-16 22:17:00,
2013-11-16 15:19:00,34.3,11.4,29.32,SSW,207,2.7,3.1,38,0.00,,---,0.00,VWS V14.01,2013-11-16 22:19:00,
2013-11-16 15:20:00,34.3,11.4,29.32,SSW,209,2.2,2.7,38,0.00,,---,0.00,VWS V14.01,2013-11-16 22:20:00,
2013-11-16 15:22:00,34.3,12.5,29.32,SSW,209,0.0,0.0,40,0.00,,---,0.00,VWS V14.01,2013-11-16 22:22:00,
2013-11-16 15:24:00,34.3,12.5,29.32,WSW,248,3.6,3.6,40,0.00,,---,0.00,VWS V14.01,2013-11-16 22:24:00,
2013-11-16 15:25:00,34.2,12.4,29.32,West,263,2.7,2.7,40,0.00,,---,0.00,VWS V14.01,2013-11-16 22:25:00,
2013-11-16 15:27:00,34.2,12.4,29.32,West,267,0.0,0.0,40,0.00,,---,0.00,VWS V14.01,2013-11-16 22:27:00,
2013-11-16 15:29:00,34.2,12.4,29.32,West,267,0.0,0.0,40,0.00,,---,0.00,VWS V14.01,2013-11-16 22:29:00,
2013-11-16 15:30:00,34.2,12.4,29.32,West,267,0.0,0.0,40,0.00,,---,0.00,VWS V14.01,2013-11-16 22:30:00,
2013-11-16 15:31:00,34.2,12.4,29.32,West,274,0.0,0.0,40,0.00,,---,0.00,VWS V14.01,2013-11-16 22:31:00,
2013-11-16 15:32:00,34.2,12.4,29.32,WNW,282,2.7,2.7,40,0.00,,---,0.00,VWS V14.01,2013-11-16 22:32:00,
2013-11-16 15:34:00,34.3,12.5,29.32,WNW,286,0.0,0.0,40,0.00,,---,0.00,VWS V14.01,2013-11-16 22:34:00,
2013-11-16 15:35:00,34.3,12.5,29.32,West,277,0.0,0.0,40,0.00,,---,0.00,VWS V14.01,2013-11-16 22:35:00,
2013-11-16 15:36:00,34.3,12.5,29.32,West,276,0.0,0.0,40,0.00,,---,0.00,VWS V14.01,2013-11-16 22:36:00,
2013-11-16 15:37:00,34.5,12.7,29.32,West,268,0.0,0.0,40,0.00,,---,0.00,VWS V14.01,2013-11-16 22:37:00,
2013-11-16 15:39:00,34.5,12.7,29.32,West,271,0.0,0.0,40,0.00,,---,0.00,VWS V14.01,2013-11-16 22:39:00,
2013-11-16 15:40:00,34.7,12.9,29.32,West,271,0.0,0.0,40,0.00,,---,0.00,VWS V14.01,2013-11-16 22:40:00,
2013-11-16 15:41:00,34.7,12.9,29.32,West,271,0.0,0.0,40,0.00,,---,0.00,VWS V14.01,2013-11-16 22:41:00,
2013-11-16 15:42:00,34.9,11.9,29.32,SSW,194,3.6,5.4,38,0.00,,---,0.00,VWS V14.01,2013-11-16 22:42:00,
2013-11-16 15:44:00,35.1,12.0,29.32,West,260,4.0,4.0,38,0.00,,---,0.00,VWS V14.01,2013-11-16 22:44:00,
2013-11-16 15:45:00,35.1,12.0,29.32,West,262,2.7,3.6,38,0.00,,---,0.00,VWS V14.01,2013-11-16 22:45:00,
2013-11-16 15:46:00,35.1,12.0,29.32,WNW,295,2.7,3.6,38,0.00,,---,0.00,VWS V14.01,2013-11-16 22:46:00,
2013-11-16 15:47:00,35.1,12.6,29.35,WNW,286,2.7,3.6,39,0.00,,---,0.00,VWS V14.01,2013-11-16 22:47:00,
2013-11-16 15:49:00,35.2,12.8,29.35,West,276,2.7,2.7,39,0.00,,---,0.00,VWS V14.01,2013-11-16 22:49:00,
2013-11-16 15:50:00,35.2,12.8,29.35,West,276,0.0,2.7,39,0.00,,---,0.00,VWS V14.01,2013-11-16 22:50:00,
2013-11-16 15:51:00,35.2,12.8,29.35,West,273,0.0,0.0,39,0.00,,---,0.00,VWS V14.01,2013-11-16 22:51:00,
2013-11-16 15:52:00,35.2,12.2,29.35,West,272,0.0,0.0,38,0.00,,---,0.00,VWS V14.01,2013-11-16 22:52:00,
2013-11-16 15:54:00,35.4,12.9,29.35,West,281,3.1,4.0,39,0.00,,---,0.00,VWS V14.01,2013-11-16 22:54:00,
2013-11-16 15:56:00,35.4,11.8,29.35,West,280,0.0,0.0,37,0.00,,---,0.00,VWS V14.01,2013-11-16 22:56:00,
2013-11-16 15:57:00,35.6,11.9,29.35,WNW,290,3.1,3.6,37,0.00,,---,0.00,VWS V14.01,2013-11-16 22:57:00,
2013-11-16 15:58:00,35.4,11.8,29.35,West,277,2.7,3.6,37,0.00,,---,0.00,VWS V14.01,2013-11-16 22:58:00,
2013-11-16 16:00:00,35.4,11.8,29.35,West,278,0.0,2.2,37,0.00,,---,0.00,VWS V14.01,2013-11-16 23:00:00,
2013-11-16 16:01:00,35.4,11.8,29.35,West,278,0.0,0.0,37,0.00,,---,0.00,VWS V14.01,2013-11-16 23:01:00,
2013-11-16 16:02:00,35.4,11.1,29.35,West,277,0.0,0.0,36,0.00,,---,0.00,VWS V14.01,2013-11-16 23:02:00,
2013-11-16 16:03:00,35.4,11.8,29.35,West,277,0.0,0.0,37,0.00,,---,0.00,VWS V14.01,2013-11-16 23:03:00,
2013-11-16 16:05:00,35.2,11.6,29.35,NNW,339,2.7,3.1,37,0.00,,---,0.00,VWS V14.01,2013-11-16 23:05:00,
2013-11-16 16:06:00,35.2,11.6,29.35,NNW,339,2.7,2.7,37,0.00,,---,0.00,VWS V14.01,2013-11-16 23:06:00,
2013-11-16 16:07:00,35.1,11.4,29.35,NW,316,2.7,3.1,37,0.00,,---,0.00,VWS V14.01,2013-11-16 23:07:00,
2013-11-16 16:08:00,35.1,11.4,29.35,NW,304,4.0,5.4,37,0.00,,---,0.00,VWS V14.01,2013-11-16 23:08:00,
2013-11-16 16:11:00,34.9,10.0,29.35,NW,319,6.3,6.3,35,0.00,,---,0.00,VWS V14.01,2013-11-16 23:11:00,
2013-11-16 16:12:00,34.9,10.0,29.35,NNW,334,4.0,4.9,35,0.00,,---,0.00,VWS V14.01,2013-11-16 23:12:00,
2013-11-16 16:13:00,34.9,10.6,29.35,NW,321,4.9,4.9,36,0.00,,---,0.00,VWS V14.01,2013-11-16 23:13:00,
2013-11-16 16:15:00,32.7,8.7,29.38,SE,125,2.2,3.1,36,0.00,,,0.00,VWS V15.00,2013-11-16 23:15:00,
2013-11-16 16:16:00,34.7,10.5,29.35,NW,308,5.4,5.4,36,0.00,,---,0.00,VWS V14.01,2013-11-16 23:16:00,
2013-11-16 16:17:00,34.5,9.7,29.35,West,281,4.9,6.3,35,0.00,,---,0.00,VWS V14.01,2013-11-16 23:17:00,
2013-11-16 16:18:00,34.5,9.7,29.35,NNW,336,4.9,4.9,35,0.00,,---,0.00,VWS V14.01,2013-11-16 23:18:00,
2013-11-16 16:19:00,34.5,9.7,29.35,NNW,339,4.0,4.0,35,0.00,,---,0.00,VWS V14.01,2013-11-16 23:19:00,
2013-11-16 16:21:00,34.3,9.5,29.35,WNW,290,3.6,3.6,35,0.00,,---,0.00,VWS V14.01,2013-11-16 23:21:00,
2013-11-16 16:22:00,34.3,10.2,29.35,WNW,302,3.1,3.1,36,0.00,,---,0.00,VWS V14.01,2013-11-16 23:22:00,
2013-11-16 16:23:00,34.3,10.2,29.35,NW,309,5.4,5.4,36,0.00,,---,0.00,VWS V14.01,2013-11-16 23:23:00,
2013-11-16 16:24:00,34.2,9.4,29.35,West,278,4.0,4.0,35,0.00,,---,0.00,VWS V14.01,2013-11-16 23:24:00,
2013-11-16 16:26:00,34.0,9.2,29.35,NNW,336,3.6,3.6,35,0.00,,---,0.00,VWS V14.01,2013-11-16 23:26:00,
2013-11-16 16:27:00,34.0,9.2,29.35,WNW,293,3.1,4.0,35,0.00,,---,0.00,VWS V14.01,2013-11-16 23:27:00,
2013-11-16 16:28:00,34.0,9.9,29.35,WNW,284,2.7,3.1,36,0.00,,---,0.00,VWS V14.01,2013-11-16 23:28:00,
2013-11-16 16:29:00,34.0,9.9,29.35,West,280,2.7,4.0,36,0.00,,---,0.00,VWS V14.01,2013-11-16 23:29:00,
2013-11-16 16:30:00,32.9,8.9,29.38,West,278,3.1,5.4,36,0.00,,,0.00,VWS V15.00,2013-11-16 23:30:00,
2013-11-16 16:31:00,33.8,9.1,29.35,West,277,6.3,6.3,35,0.00,,---,0.00,VWS V14.01,2013-11-16 23:31:00,
2013-11-16 16:32:00,33.8,9.1,29.35,WNW,291,3.6,4.9,35,0.00,,---,0.00,VWS V14.01,2013-11-16 23:32:00,
2013-11-16 16:33:00,33.8,9.1,29.35,WNW,289,5.4,5.4,35,0.00,,---,0.00,VWS V14.01,2013-11-16 23:33:00,
2013-11-16 16:34:00,33.8,9.1,29.35,West,268,3.1,3.1,35,0.00,,---,0.00,VWS V14.01,2013-11-16 23:34:00,
2013-11-16 16:35:00,33.8,9.1,29.35,West,268,2.2,3.1,35,0.00,,---,0.00,VWS V14.01,2013-11-16 23:35:00,
2013-11-16 16:37:00,33.8,9.1,29.35,WNW,296,4.0,4.0,35,0.00,,---,0.00,VWS V14.01,2013-11-16 23:37:00,
2013-11-16 16:38:00,33.8,9.1,29.35,NW,307,6.3,6.3,35,0.00,,---,0.00,VWS V14.01,2013-11-16 23:38:00,
2013-11-16 16:39:00,33.8,9.1,29.35,SW,235,3.6,3.6,35,0.00,,---,0.00,VWS V14.01,2013-11-16 23:39:00,
2013-11-16 16:40:00,33.8,9.1,29.35,West,273,2.7,4.0,35,0.00,,---,0.00,VWS V14.01,2013-11-16 23:40:00,
2013-11-16 16:42:00,33.8,9.1,29.35,West,273,0.0,0.0,35,0.00,,---,0.00,VWS V14.01,2013-11-16 23:42:00,
2013-11-16 16:43:00,33.6,9.5,29.35,West,276,2.7,2.7,36,0.00,,---,0.00,VWS V14.01,2013-11-16 23:43:00,
2013-11-16 16:44:00,33.6,9.5,29.35,WNW,283,0.0,0.0,36,0.00,,---,0.00,VWS V14.01,2013-11-16 23:44:00,
2013-11-16 16:45:00,33.6,9.5,29.35,WNW,284,0.0,0.0,36,0.00,,---,0.00,VWS V14.01,2013-11-16 23:45:00,
2013-11-16 16:47:00,33.6,9.5,29.38,WNW,301,2.2,2.7,36,0.00,,---,0.00,VWS V14.01,2013-11-16 23:47:00,
2013-11-16 16:48:00,33.4,9.4,29.38,WNW,294,2.2,2.2,36,0.00,,---,0.00,VWS V14.01,2013-11-16 23:48:00,
2013-11-16 16:49:00,33.4,10.0,29.38,West,281,3.1,3.1,37,0.00,,---,0.00,VWS V14.01,2013-11-16 23:49:00,
2013-11-16 16:50:00,33.4,10.0,29.38,West,281,2.7,3.1,37,0.00,,---,0.00,VWS V14.01,2013-11-16 23:50:00,
2013-11-16 16:52:00,33.3,9.2,29.38,West,274,3.6,3.6,36,0.00,,---,0.00,VWS V14.01,2013-11-16 23:52:00,
2013-11-16 16:53:00,33.3,9.2,29.38,West,268,3.6,3.6,36,0.00,,---,0.00,VWS V14.01,2013-11-16 23:53:00,
2013-11-16 16:54:00,33.3,9.2,29.38,SSW,212,4.0,4.0,36,0.00,,---,0.00,VWS V14.01,2013-11-16 23:54:00,
2013-11-16 16:55:00,33.3,9.2,29.38,WNW,286,4.5,4.9,36,0.00,,---,0.00,VWS V14.01,2013-11-16 23:55:00,
2013-11-16 16:56:00,33.3,9.2,29.38,WSW,246,3.1,3.6,36,0.00,,---,0.00,VWS V14.01,2013-11-16 23:56:00,
2013-11-16 16:57:00,33.3,9.8,29.38,West,269,3.1,3.1,37,0.00,,---,0.00,VWS V14.01,2013-11-16 23:57:00,
2013-11-16 16:58:00,33.3,9.2,29.38,West,278,3.1,3.1,36,0.00,,---,0.00,VWS V14.01,2013-11-16 23:58:00,
2013-11-16 16:59:00,33.3,9.2,29.38,WNW,293,2.7,3.1,36,0.00,,---,0.00,VWS V14.01,2013-11-16 23:59:00,
2013-11-16 17:00:00,33.3,9.2,29.38,WNW,282,3.1,4.0,36,0.00,,---,0.00,VWS V14.01,2013-11-17 00:00:00,
2013-11-16 17:02:00,33.3,9.2,29.38,WSW,256,3.6,3.6,36,0.00,,---,0.00,VWS V14.01,2013-11-17 00:02:00,
2013-11-16 17:03:00,33.1,9.1,29.38,SSW,203,5.4,6.7,36,0.00,,---,0.00,VWS V14.01,2013-11-17 00:03:00,
2013-11-16 17:04:00,33.1,9.1,29.38,SSW,202,5.8,5.8,36,0.00,,---,0.00,VWS V14.01,2013-11-17 00:04:00,
2013-11-16 17:05:00,33.1,9.1,29.38,SSW,203,2.7,2.7,36,0.00,,---,0.00,VWS V14.01,2013-11-17 00:05:00,
2013-11-16 17:07:00,33.1,8.4,29.38,South,181,2.7,3.6,35,0.00,,---,0.00,VWS V14.01,2013-11-17 00:07:00,
2013-11-16 17:08:00,33.1,9.1,29.38,South,181,0.0,3.6,36,0.00,,---,0.00,VWS V14.01,2013-11-17 00:08:00,
2013-11-16 17:09:00,33.1,9.1,29.38,South,181,0.0,0.0,36,0.00,,---,0.00,VWS V14.01,2013-11-17 00:09:00,
2013-11-16 17:10:00,33.1,9.1,29.38,South,181,0.0,0.0,36,0.00,,---,0.00,VWS V14.01,2013-11-17 00:10:00,
2013-11-16 17:12:00,32.9,8.3,29.38,South,181,0.0,0.0,35,0.00,,---,0.00,VWS V14.01,2013-11-17 00:12:00,
2013-11-16 17:14:00,32.7,8.7,29.38,South,181,0.0,0.0,36,0.00,,---,0.00,VWS V14.01,2013-11-17 00:14:00,
2013-11-16 17:15:00,32.7,8.7,29.38,SE,124,3.1,3.1,36,0.00,,---,0.00,VWS V14.01,2013-11-17 00:15:00,
2013-11-16 17:16:00,32.7,8.7,29.38,South,175,2.7,2.7,36,0.00,,---,0.00,VWS V14.01,2013-11-17 00:16:00,
2013-11-16 17:17:00,32.7,9.3,29.38,South,181,0.0,2.7,37,0.00,,---,0.00,VWS V14.01,2013-11-17 00:17:00,
2013-11-16 17:19:00,32.5,8.6,29.38,North,353,5.4,5.4,36,0.00,,---,0.00,VWS V14.01,2013-11-17 00:19:00,
2013-11-16 17:20:00,32.5,8.6,29.38,NNW,333,2.7,5.4,36,0.00,,---,0.00,VWS V14.01,2013-11-17 00:20:00,
2013-11-16 17:21:00,32.5,8.6,29.38,NW,321,2.7,3.6,36,0.00,,---,0.00,VWS V14.01,2013-11-17 00:21:00,
2013-11-16 17:22:00,32.7,8.7,29.38,North,353,3.1,3.6,36,0.00,,---,0.00,VWS V14.01,2013-11-17 00:22:00,
2013-11-16 17:24:00,32.7,8.7,29.38,WNW,288,3.1,4.0,36,0.00,,---,0.00,VWS V14.01,2013-11-17 00:24:00,
2013-11-16 17:25:00,32.7,8.7,29.38,WNW,289,2.7,2.7,36,0.00,,---,0.00,VWS V14.01,2013-11-17 00:25:00,
2013-11-16 17:26:00,32.7,8.7,29.38,North,350,5.4,8.7,36,0.00,,---,0.00,VWS V14.01,2013-11-17 00:26:00,
2013-11-16 17:27:00,32.7,8.7,29.38,North,4,7.6,7.6,36,0.00,,---,0.00,VWS V14.01,2013-11-17 00:27:00,
2013-11-16 17:29:00,32.9,8.9,29.38,West,280,3.6,3.6,36,0.00,,---,0.00,VWS V14.01,2013-11-17 00:29:00,
2013-11-16 17:30:00,32.9,8.9,29.38,West,279,4.0,4.9,36,0.00,,---,0.00,VWS V14.01,2013-11-17 00:30:00,
2013-11-16 17:32:00,32.9,8.9,29.41,West,279,0.0,2.2,36,0.00,,---,0.00,VWS V14.01,2013-11-17 00:32:00,
2013-11-16 17:33:00,32.7,8.7,29.41,West,279,0.0,0.0,36,0.00,,---,0.00,VWS V14.01,2013-11-17 00:33:00,
2013-11-16 17:34:00,32.7,8.7,29.41,West,279,0.0,0.0,36,0.00,,---,0.00,VWS V14.01,2013-11-17 00:34:00,
2013-11-16 17:35:00,32.7,8.7,29.41,West,279,0.0,0.0,36,0.00,,---,0.00,VWS V14.01,2013-11-17 00:35:00,
2013-11-16 17:37:00,32.5,8.6,29.41,West,279,0.0,0.0,36,0.00,,---,0.00,VWS V14.01,2013-11-17 00:37:00,
2013-11-16 17:39:00,32.5,8.6,29.41,West,279,0.0,0.0,36,0.00,,---,0.00,VWS V14.01,2013-11-17 00:39:00,
2013-11-16 17:40:00,32.4,8.4,29.41,West,279,0.0,0.0,36,0.00,,---,0.00,VWS V14.01,2013-11-17 00:40:00,
2013-11-16 17:42:00,32.2,8.2,29.41,SW,218,0.0,0.0,36,0.00,,---,0.00,VWS V14.01,2013-11-17 00:42:00,
2013-11-16 17:43:00,32.2,8.2,29.41,SW,218,0.0,0.0,36,0.00,,---,0.00,VWS V14.01,2013-11-17 00:43:00,
2013-11-16 17:44:00,32.2,8.2,29.41,SW,218,0.0,0.0,36,0.00,,---,0.00,VWS V14.01,2013-11-17 00:44:00,
2013-11-16 17:45:00,32.2,8.2,29.41,SW,218,0.0,0.0,36,0.00,,---,0.00,VWS V14.01,2013-11-17 00:45:00,
2013-11-16 17:48:00,32.0,7.5,29.41,WNW,289,3.1,4.9,35,0.00,,---,0.00,VWS V14.01,2013-11-17 00:48:00,
2013-11-16 17:49:00,32.0,8.1,29.41,NW,307,0.0,0.0,36,0.00,,---,0.00,VWS V14.01,2013-11-17 00:49:00,
2013-11-16 17:50:00,32.0,8.1,29.41,NW,307,0.0,0.0,36,0.00,,---,0.00,VWS V14.01,2013-11-17 00:50:00,
2013-11-16 17:53:00,32.0,8.1,29.41,NNW,339,0.0,0.0,36,0.00,,---,0.00,VWS V14.01,2013-11-17 00:53:00,
2013-11-16 17:54:00,32.0,8.1,29.41,North,353,4.0,4.0,36,0.00,,---,0.00,VWS V14.01,2013-11-17 00:54:00,
2013-11-16 17:56:00,32.0,8.1,29.41,North,350,3.6,4.0,36,0.00,,---,0.00,VWS V14.01,2013-11-17 00:56:00,
2013-11-16 17:58:00,32.0,8.1,29.41,North,357,3.6,4.0,36,0.00,,---,0.00,VWS V14.01,2013-11-17 00:58:00,
2013-11-16 17:59:00,32.0,8.1,29.41,North,353,4.9,4.9,36,0.00,,---,0.00,VWS V14.01,2013-11-17 00:59:00,
2013-11-16 18:00:00,30.2,7.1,29.44,WNW,292,0.0,0.0,37,0.00,,,0.00,VWS V15.00,2013-11-17 01:00:00,
2013-11-16 18:01:00,32.2,8.9,29.41,NNW,327,2.7,2.7,37,0.00,,---,0.00,VWS V14.01,2013-11-17 01:01:00,
2013-11-16 18:02:00,32.2,8.9,29.41,NW,326,0.0,2.7,37,0.00,,---,0.00,VWS V14.01,2013-11-17 01:02:00,
2013-11-16 18:03:00,32.2,8.2,29.41,NW,307,0.0,0.0,36,0.00,,---,0.00,VWS V14.01,2013-11-17 01:03:00,
2013-11-16 18:04:00,32.2,8.2,29.41,NW,310,0.0,0.0,36,0.00,,---,0.00,VWS V14.01,2013-11-17 01:04:00,
2013-11-16 18:05:00,32.2,8.2,29.41,NW,310,0.0,0.0,36,0.00,,---,0.00,VWS V14.01,2013-11-17 01:05:00,
2013-11-16 18:06:00,32.2,8.2,29.41,NW,311,0.0,0.0,36,0.00,,---,0.00,VWS V14.01,2013-11-17 01:06:00,
2013-11-16 18:08:00,32.2,8.2,29.41,NW,316,0.0,0.0,36,0.00,,---,0.00,VWS V14.01,2013-11-17 01:08:00,
2013-11-16 18:09:00,32.2,8.2,29.41,NW,316,0.0,0.0,36,0.00,,---,0.00,VWS V14.01,2013-11-17 01:09:00,
2013-11-16 18:10:00,32.2,8.2,29.41,NW,316,0.0,0.0,36,0.00,,---,0.00,VWS V14.01,2013-11-17 01:10:00,
2013-11-16 18:11:00,32.0,8.1,29.41,NW,316,0.0,0.0,36,0.00,,---,0.00,VWS V14.01,2013-11-17 01:11:00,
2013-11-16 18:13:00,32.0,8.1,29.41,NW,316,0.0,0.0,36,0.00,,---,0.00,VWS V14.01,2013-11-17 01:13:00,
2013-11-16 18:14:00,32.0,8.1,29.41,NW,316,0.0,0.0,36,0.00,,---,0.00,VWS V14.01,2013-11-17 01:14:00,
2013-11-16 18:15:00,32.0,8.1,29.41,NW,316,0.0,0.0,36,0.00,,---,0.00,VWS V14.01,2013-11-17 01:15:00,
2013-11-16 18:16:00,31.8,7.9,29.44,NW,316,0.0,0.0,36,0.00,,---,0.00,VWS V14.01,2013-11-17 01:16:00,
2013-11-16 18:19:00,31.8,7.9,29.44,NW,316,0.0,0.0,36,0.00,,---,0.00,VWS V14.01,2013-11-17 01:19:00,
2013-11-16 18:20:00,31.8,7.9,29.44,NW,316,0.0,0.0,36,0.00,,---,0.00,VWS V14.01,2013-11-17 01:20:00,
2013-11-16 18:21:00,31.6,7.8,29.44,NW,316,0.0,0.0,36,0.00,,---,0.00,VWS V14.01,2013-11-17 01:21:00,
2013-11-16 18:24:00,31.5,7.6,29.44,NW,316,0.0,0.0,36,0.00,,---,0.00,VWS V14.01,2013-11-17 01:24:00,
2013-11-16 18:25:00,31.5,7.6,29.44,NW,316,0.0,0.0,36,0.00,,---,0.00,VWS V14.01,2013-11-17 01:25:00,
2013-11-16 18:26:00,31.3,7.4,29.44,NW,316,0.0,0.0,36,0.00,,---,0.00,VWS V14.01,2013-11-17 01:26:00,
2013-11-16 18:29:00,31.1,7.3,29.44,NW,316,0.0,0.0,36,0.00,,---,0.00,VWS V14.01,2013-11-17 01:29:00,
2013-11-16 18:30:00,31.1,7.3,29.44,NW,316,0.0,0.0,36,0.00,,---,0.00,VWS V14.01,2013-11-17 01:30:00,
2013-11-16 18:31:00,31.1,7.3,29.44,NW,316,0.0,0.0,36,0.00,,---,0.00,VWS V14.01,2013-11-17 01:31:00,
2013-11-16 18:35:00,30.7,7.0,29.44,NW,316,0.0,0.0,36,0.00,,---,0.00,VWS V14.01,2013-11-17 01:35:00,
2013-11-16 18:36:00,30.7,7.0,29.44,NW,316,0.0,0.0,36,0.00,,---,0.00,VWS V14.01,2013-11-17 01:36:00,
2013-11-16 18:40:00,30.7,7.0,29.44,NW,316,0.0,0.0,36,0.00,,---,0.00,VWS V14.01,2013-11-17 01:40:00,
2013-11-16 18:41:00,30.7,7.0,29.44,NW,316,0.0,0.0,36,0.00,,---,0.00,VWS V14.01,2013-11-17 01:41:00,
2013-11-16 18:42:00,30.7,7.0,29.44,NW,316,0.0,0.0,36,0.00,,---,0.00,VWS V14.01,2013-11-17 01:42:00,
2013-11-16 18:45:00,30.7,7.0,29.44,NW,316,0.0,0.0,36,0.00,,---,0.00,VWS V14.01,2013-11-17 01:45:00,
2013-11-16 18:46:00,30.7,7.0,29.44,NW,316,0.0,0.0,36,0.00,,---,0.00,VWS V14.01,2013-11-17 01:46:00,
2013-11-16 18:47:00,30.7,7.0,29.44,NW,316,0.0,0.0,36,0.00,,---,0.00,VWS V14.01,2013-11-17 01:47:00,
2013-11-16 18:50:00,30.6,6.8,29.44,NW,316,0.0,0.0,36,0.00,,---,0.00,VWS V14.01,2013-11-17 01:50:00,
2013-11-16 18:51:00,30.6,6.8,29.44,NW,316,0.0,0.0,36,0.00,,---,0.00,VWS V14.01,2013-11-17 01:51:00,
2013-11-16 18:52:00,30.6,6.8,29.44,NW,316,0.0,0.0,36,0.00,,---,0.00,VWS V14.01,2013-11-17 01:52:00,
2013-11-16 18:55:00,30.4,6.6,29.44,NW,316,0.0,0.0,36,0.00,,---,0.00,VWS V14.01,2013-11-17 01:55:00,
2013-11-16 18:56:00,30.4,6.6,29.44,NW,316,0.0,0.0,36,0.00,,---,0.00,VWS V14.01,2013-11-17 01:56:00,
2013-11-16 18:57:00,30.4,6.6,29.44,NW,316,0.0,0.0,36,0.00,,---,0.00,VWS V14.01,2013-11-17 01:57:00,
2013-11-16 19:00:00,31.1,6.0,29.44,SW,222,2.7,3.1,34,0.00,,,0.00,VWS V15.00,2013-11-17 02:00:00,
2013-11-16 19:01:00,30.2,7.1,29.44,WNW,287,0.0,0.0,37,0.00,,---,0.00,VWS V14.01,2013-11-17 02:01:00,
2013-11-16 19:02:00,30.2,6.5,29.44,West,275,2.7,3.6,36,0.00,,---,0.00,VWS V14.01,2013-11-17 02:02:00,
2013-11-16 19:06:00,30.7,6.3,29.44,WSW,252,2.7,3.1,35,0.00,,---,0.00,VWS V14.01,2013-11-17 02:06:00,
2013-11-16 19:07:00,30.9,6.5,29.44,West,262,2.7,3.1,35,0.00,,---,0.00,VWS V14.01,2013-11-17 02:07:00,
2013-11-16 19:11:00,31.3,6.8,29.44,WNW,291,3.6,3.6,35,0.00,,---,0.00,VWS V14.01,2013-11-17 02:11:00,
2013-11-16 19:12:00,31.3,6.8,29.44,West,281,0.0,0.0,35,0.00,,---,0.00,VWS V14.01,2013-11-17 02:12:00,
2013-11-16 19:15:00,31.8,6.7,29.44,WSW,240,4.9,4.9,34,0.00,,,0.00,VWS V15.00,2013-11-17 02:15:00,
2013-11-16 19:16:00,31.3,6.8,29.44,West,277,0.0,0.0,35,0.00,,---,0.00,VWS V14.01,2013-11-17 02:16:00,
2013-11-16 19:17:00,31.3,6.8,29.44,West,277,0.0,0.0,35,0.00,,---,0.00,VWS V14.01,2013-11-17 02:17:00,
2013-11-16 19:21:00,31.3,6.8,29.44,WNW,287,2.7,3.1,35,0.00,,---,0.00,VWS V14.01,2013-11-17 02:21:00,
2013-11-16 19:22:00,31.3,6.2,29.44,SSW,208,3.6,3.6,34,0.00,,---,0.00,VWS V14.01,2013-11-17 02:22:00,
2013-11-16 19:23:00,31.3,6.2,29.44,SSW,211,3.6,3.6,34,0.00,,---,0.00,VWS V14.01,2013-11-17 02:23:00,
2013-11-16 19:26:00,31.5,6.3,29.44,SSW,205,2.2,2.7,34,0.00,,---,0.00,VWS V14.01,2013-11-17 02:26:00,
2013-11-16 19:27:00,31.5,6.3,29.44,SSW,200,6.3,6.3,34,0.00,,---,0.00,VWS V14.01,2013-11-17 02:27:00,
2013-11-16 19:28:00,31.5,6.3,29.44,SW,227,7.6,7.6,34,0.00,,---,0.00,VWS V14.01,2013-11-17 02:28:00,
2013-11-16 19:30:00,31.8,6.7,29.47,WNW,285,3.6,3.6,34,0.00,,,0.00,VWS V15.00,2013-11-17 02:30:00,
2013-11-16 19:31:00,31.6,6.5,29.44,SSW,200,5.4,5.4,34,0.00,,---,0.00,VWS V14.01,2013-11-17 02:31:00,
2013-11-16 19:32:00,31.6,6.5,29.44,SW,224,3.1,5.4,34,0.00,,---,0.00,VWS V14.01,2013-11-17 02:32:00,
2013-11-16 19:33:00,31.6,6.5,29.44,SW,224,0.0,2.7,34,0.00,,---,0.00,VWS V14.01,2013-11-17 02:33:00,
2013-11-16 19:37:00,31.6,6.5,29.44,SSW,197,2.2,6.3,34,0.00,,---,0.00,VWS V14.01,2013-11-17 02:37:00,
2013-11-16 19:38:00,31.8,6.0,29.44,SSW,197,3.6,3.6,33,0.00,,---,0.00,VWS V14.01,2013-11-17 02:38:00,
2013-11-16 19:42:00,31.8,6.7,29.44,South,190,0.0,0.0,34,0.00,,---,0.00,VWS V14.01,2013-11-17 02:42:00,
2013-11-16 19:43:00,31.8,6.7,29.44,South,190,0.0,0.0,34,0.00,,---,0.00,VWS V14.01,2013-11-17 02:43:00,
2013-11-16 19:44:00,31.8,6.7,29.44,South,190,0.0,0.0,34,0.00,,---,0.00,VWS V14.01,2013-11-17 02:44:00,
2013-11-16 19:45:00,31.3,6.2,29.47,SSW,210,2.7,3.1,34,0.00,,,0.00,VWS V15.00,2013-11-17 02:45:00,
2013-11-16 19:47:00,31.6,6.5,29.44,South,190,0.0,0.0,34,0.00,,---,0.00,VWS V14.01,2013-11-17 02:47:00,
2013-11-16 19:48:00,31.5,6.3,29.44,South,190,0.0,0.0,34,0.00,,---,0.00,VWS V14.01,2013-11-17 02:48:00,
2013-11-16 19:49:00,31.5,6.3,29.44,South,190,0.0,0.0,34,0.00,,---,0.00,VWS V14.01,2013-11-17 02:49:00,
2013-11-16 19:52:00,31.3,6.2,29.44,SW,222,2.2,2.2,34,0.00,,---,0.00,VWS V14.01,2013-11-17 02:52:00,
2013-11-16 19:53:00,31.3,6.2,29.44,SW,222,0.0,0.0,34,0.00,,---,0.00,VWS V14.01,2013-11-17 02:53:00,
2013-11-16 19:55:00,31.3,6.2,29.44,SW,222,0.0,0.0,34,0.00,,---,0.00,VWS V14.01,2013-11-17 02:55:00,
2013-11-16 19:56:00,31.3,6.2,29.44,SW,222,0.0,0.0,34,0.00,,---,0.00,VWS V14.01,2013-11-17 02:56:00,
2013-11-16 19:57:00,31.1,6.0,29.44,SW,222,0.0,0.0,34,0.00,,---,0.00,VWS V14.01,2013-11-17 02:57:00,
2013-11-16 19:58:00,31.1,6.0,29.44,SW,217,3.1,3.6,34,0.00,,---,0.00,VWS V14.01,2013-11-17 02:58:00,
2013-11-16 19:59:00,31.1,6.0,29.44,SW,216,2.7,3.1,34,0.00,,---,0.00,VWS V14.01,2013-11-17 02:59:00,
2013-11-16 20:00:00,31.1,6.0,29.44,WSW,237,2.7,2.7,34,0.00,,---,0.00,VWS V14.01,2013-11-17 03:00:00,
2013-11-16 20:01:00,31.1,5.4,29.44,WSW,240,2.2,3.1,33,0.00,,---,0.00,VWS V14.01,2013-11-17 03:01:00,
2013-11-16 20:02:00,31.3,6.2,29.44,West,262,0.0,0.0,34,0.00,,---,0.00,VWS V14.01,2013-11-17 03:02:00,
2013-11-16 20:03:00,31.3,6.2,29.44,West,264,3.6,3.6,34,0.00,,---,0.00,VWS V14.01,2013-11-17 03:03:00,
2013-11-16 20:04:00,31.3,6.2,29.44,West,266,4.0,4.0,34,0.00,,---,0.00,VWS V14.01,2013-11-17 03:04:00,
2013-11-16 20:06:00,31.3,6.2,29.44,WNW,283,3.6,3.6,34,0.00,,---,0.00,VWS V14.01,2013-11-17 03:06:00,
2013-11-16 20:07:00,31.5,6.3,29.44,West,276,0.0,3.1,34,0.00,,---,0.00,VWS V14.01,2013-11-17 03:07:00,
2013-11-16 20:08:00,31.5,6.3,29.44,WSW,251,5.4,5.4,34,0.00,,---,0.00,VWS V14.01,2013-11-17 03:08:00,
2013-11-16 20:09:00,31.5,6.3,29.44,WSW,251,2.7,5.4,34,0.00,,---,0.00,VWS V14.01,2013-11-17 03:09:00,
2013-11-16 20:11:00,31.6,6.5,29.44,SW,214,4.9,4.9,34,0.00,,---,0.00,VWS V14.01,2013-11-17 03:11:00,
2013-11-16 20:12:00,31.6,5.8,29.44,SSW,213,3.1,5.4,33,0.00,,---,0.00,VWS V14.01,2013-11-17 03:12:00,
2013-11-16 20:14:00,31.6,6.5,29.44,WSW,256,2.7,2.7,34,0.00,,---,0.00,VWS V14.01,2013-11-17 03:14:00,
2013-11-16 20:15:00,30.9,7.1,29.47,WNW,292,4.5,4.9,36,0.00,,,0.00,VWS V15.00,2013-11-17 03:15:00,
2013-11-16 20:16:00,31.8,6.0,29.47,West,277,3.1,3.1,33,0.00,,---,0.00,VWS V14.01,2013-11-17 03:16:00,
2013-11-16 20:17:00,31.8,6.0,29.47,West,273,2.7,3.1,33,0.00,,---,0.00,VWS V14.01,2013-11-17 03:17:00,
2013-11-16 20:18:00,31.8,6.0,29.47,West,265,5.4,5.4,33,0.00,,---,0.00,VWS V14.01,2013-11-17 03:18:00,
2013-11-16 20:19:00,31.8,6.0,29.47,West,265,4.0,4.0,33,0.00,,---,0.00,VWS V14.01,2013-11-17 03:19:00,
2013-11-16 20:21:00,31.8,6.0,29.47,SW,233,5.8,5.8,33,0.00,,---,0.00,VWS V14.01,2013-11-17 03:21:00,
2013-11-16 20:22:00,32.0,6.8,29.47,SW,232,4.0,5.8,34,0.00,,---,0.00,VWS V14.01,2013-11-17 03:22:00,
2013-11-16 20:23:00,32.0,6.8,29.47,West,277,4.9,4.9,34,0.00,,---,0.00,VWS V14.01,2013-11-17 03:23:00,
2013-11-16 20:24:00,31.8,6.7,29.47,West,276,2.7,4.0,34,0.00,,---,0.00,VWS V14.01,2013-11-17 03:24:00,
2013-11-16 20:26:00,31.8,6.7,29.47,WSW,248,3.1,4.0,34,0.00,,---,0.00,VWS V14.01,2013-11-17 03:26:00,
2013-11-16 20:27:00,31.8,6.0,29.47,WNW,299,4.0,4.0,33,0.00,,---,0.00,VWS V14.01,2013-11-17 03:27:00,
2013-11-16 20:28:00,31.8,6.7,29.47,West,265,4.9,4.9,34,0.00,,---,0.00,VWS V14.01,2013-11-17 03:28:00,
2013-11-16 20:29:00,31.8,6.7,29.47,WSW,251,5.8,5.8,34,0.00,,---,0.00,VWS V14.01,2013-11-17 03:29:00,
2013-11-16 20:30:00,31.8,6.7,29.47,West,268,4.9,4.9,34,0.00,,---,0.00,VWS V14.01,2013-11-17 03:30:00,
2013-11-16 20:32:00,31.6,6.5,29.47,West,268,4.0,4.0,34,0.00,,---,0.00,VWS V14.01,2013-11-17 03:32:00,
2013-11-16 20:33:00,31.6,6.5,29.47,West,263,3.6,4.0,34,0.00,,---,0.00,VWS V14.01,2013-11-17 03:33:00,
2013-11-16 20:34:00,31.6,6.5,29.47,West,260,3.1,4.0,34,0.00,,---,0.00,VWS V14.01,2013-11-17 03:34:00,
2013-11-16 20:35:00,31.6,6.5,29.47,WNW,297,2.7,4.9,34,0.00,,---,0.00,VWS V14.01,2013-11-17 03:35:00,
2013-11-16 20:37:00,31.5,6.3,29.47,West,267,4.5,4.5,34,0.00,,---,0.00,VWS V14.01,2013-11-17 03:37:00,
2013-11-16 20:38:00,31.5,6.3,29.47,West,267,2.2,4.5,34,0.00,,---,0.00,VWS V14.01,2013-11-17 03:38:00,
2013-11-16 20:39:00,31.5,6.3,29.47,West,267,2.7,2.7,34,0.00,,---,0.00,VWS V14.01,2013-11-17 03:39:00,
2013-11-16 20:40:00,31.5,6.3,29.47,West,267,2.2,2.7,34,0.00,,---,0.00,VWS V14.01,2013-11-17 03:40:00,
2013-11-16 20:42:00,31.5,7.0,29.47,SSW,202,3.6,3.6,35,0.00,,---,0.00,VWS V14.01,2013-11-17 03:42:00,
2013-11-16 20:43:00,31.5,6.3,29.47,SSW,209,3.6,4.0,34,0.00,,---,0.00,VWS V14.01,2013-11-17 03:43:00,
2013-11-16 20:44:00,31.3,6.2,29.47,WSW,254,4.9,4.9,34,0.00,,---,0.00,VWS V14.01,2013-11-17 03:44:00,
2013-11-16 20:45:00,31.3,6.2,29.47,SSW,210,2.7,3.1,34,0.00,,---,0.00,VWS V14.01,2013-11-17 03:45:00,
2013-11-16 20:48:00,31.3,6.2,29.47,SW,235,2.2,2.2,34,0.00,,---,0.00,VWS V14.01,2013-11-17 03:48:00,
2013-11-16 20:49:00,31.3,6.8,29.47,SSW,211,3.6,3.6,35,0.00,,---,0.00,VWS V14.01,2013-11-17 03:49:00,
2013-11-16 20:50:00,31.3,6.8,29.47,SW,224,2.7,4.0,35,0.00,,---,0.00,VWS V14.01,2013-11-17 03:50:00,
2013-11-16 20:53:00,31.1,6.0,29.47,SSW,208,5.4,5.4,34,0.00,,---,0.00,VWS V14.01,2013-11-17 03:53:00,
2013-11-16 20:54:00,31.3,6.8,29.47,West,273,3.1,3.1,35,0.00,,---,0.00,VWS V14.01,2013-11-17 03:54:00,
2013-11-16 20:56:00,31.1,6.7,29.47,West,267,3.6,3.6,35,0.00,,---,0.00,VWS V14.01,2013-11-17 03:56:00,
2013-11-16 20:58:00,31.1,6.7,29.47,West,267,4.0,4.9,35,0.00,,---,0.00,VWS V14.01,2013-11-17 03:58:00,
2013-11-16 20:59:00,31.1,6.7,29.47,West,278,3.6,5.4,35,0.00,,---,0.00,VWS V14.01,2013-11-17 03:59:00,
2013-11-16 21:00:00,31.1,6.7,29.47,West,277,5.4,5.4,35,0.00,,---,0.00,VWS V14.01,2013-11-17 04:00:00,
2013-11-16 21:01:00,31.3,7.4,29.47,West,281,3.1,3.1,36,0.00,,---,0.00,VWS V14.01,2013-11-17 04:01:00,
2013-11-16 21:02:00,31.1,6.7,29.47,WNW,291,5.4,5.4,35,0.00,,---,0.00,VWS V14.01,2013-11-17 04:02:00,
2013-11-16 21:03:00,31.1,7.3,29.47,West,265,3.1,4.0,36,0.00,,---,0.00,VWS V14.01,2013-11-17 04:03:00,
2013-11-16 21:04:00,31.1,6.7,29.47,SW,235,3.6,3.6,35,0.00,,---,0.00,VWS V14.01,2013-11-17 04:04:00,
2013-11-16 21:05:00,31.1,6.7,29.47,WSW,257,4.0,4.0,35,0.00,,---,0.00,VWS V14.01,2013-11-17 04:05:00,
2013-11-16 21:07:00,31.1,7.3,29.47,SW,222,4.9,4.9,36,0.00,,---,0.00,VWS V14.01,2013-11-17 04:07:00,
2013-11-16 21:08:00,31.1,7.3,29.47,West,271,3.1,6.3,36,0.00,,---,0.00,VWS V14.01,2013-11-17 04:08:00,
2013-11-16 21:09:00,31.1,7.3,29.47,WSW,243,4.0,4.0,36,0.00,,---,0.00,VWS V14.01,2013-11-17 04:09:00,
2013-11-16 21:10:00,31.1,7.3,29.47,West,276,5.4,5.4,36,0.00,,---,0.00,VWS V14.01,2013-11-17 04:10:00,
2013-11-16 21:12:00,31.1,7.3,29.47,WNW,303,5.4,5.4,36,0.00,,---,0.00,VWS V14.01,2013-11-17 04:12:00,
2013-11-16 21:14:00,31.1,7.3,29.47,West,266,3.6,5.4,36,0.00,,---,0.00,VWS V14.01,2013-11-17 04:14:00,
2013-11-16 21:15:00,30.9,7.1,29.47,West,281,3.6,4.5,36,0.00,,---,0.00,VWS V14.01,2013-11-17 04:15:00,
2013-11-16 21:17:00,30.9,7.7,29.47,SW,236,3.6,5.4,37,0.00,,---,0.00,VWS V14.01,2013-11-17 04:17:00,
2013-11-16 21:19:00,30.9,7.7,29.47,WSW,250,3.1,3.6,37,0.00,,---,0.00,VWS V14.01,2013-11-17 04:19:00,
2013-11-16 21:20:00,30.9,7.1,29.47,WSW,240,3.6,3.6,36,0.00,,---,0.00,VWS V14.01,2013-11-17 04:20:00,
2013-11-16 21:22:00,30.7,7.6,29.47,WSW,246,3.6,3.6,37,0.00,,---,0.00,VWS V14.01,2013-11-17 04:22:00,
2013-11-16 21:24:00,30.7,7.6,29.47,West,278,4.0,4.0,37,0.00,,---,0.00,VWS V14.01,2013-11-17 04:24:00,
2013-11-16 21:25:00,30.7,8.1,29.47,West,264,4.0,5.8,38,0.00,,---,0.00,VWS V14.01,2013-11-17 04:25:00,
2013-11-16 21:27:00,30.6,8.0,29.47,West,272,4.9,4.9,38,0.00,,---,0.00,VWS V14.01,2013-11-17 04:27:00,
2013-11-16 21:29:00,30.6,8.0,29.47,West,278,3.1,4.0,38,0.00,,---,0.00,VWS V14.01,2013-11-17 04:29:00,
2013-11-16 21:30:00,30.6,8.0,29.47,West,270,2.7,4.0,38,0.00,,---,0.00,VWS V14.01,2013-11-17 04:30:00,
2013-11-16 21:32:00,30.6,8.0,29.50,West,264,4.0,4.9,38,0.00,,---,0.00,VWS V14.01,2013-11-17 04:32:00,
2013-11-16 21:35:00,30.6,8.0,29.50,WSW,237,3.6,3.6,38,0.00,,---,0.00,VWS V14.01,2013-11-17 04:35:00,
2013-11-16 21:36:00,30.6,8.6,29.50,SW,216,3.1,4.0,39,0.00,,---,0.00,VWS V14.01,2013-11-17 04:36:00,
2013-11-16 21:37:00,30.6,8.6,29.50,West,278,3.1,4.0,39,0.00,,---,0.00,VWS V14.01,2013-11-17 04:37:00,
2013-11-16 21:40:00,30.4,8.4,29.50,West,278,0.0,0.0,39,0.00,,---,0.00,VWS V14.01,2013-11-17 04:40:00,
2013-11-16 21:41:00,30.4,8.4,29.50,West,264,0.0,0.0,39,0.00,,---,0.00,VWS V14.01,2013-11-17 04:41:00,
2013-11-16 21:42:00,30.4,9.0,29.50,SW,229,4.0,4.0,40,0.00,,---,0.00,VWS V14.01,2013-11-17 04:42:00,
2013-11-16 21:45:00,30.2,8.8,29.50,SSW,201,4.0,4.0,40,0.00,,---,0.00,VWS V14.01,2013-11-17 04:45:00,
2013-11-16 21:46:00,30.2,8.8,29.50,SSW,213,3.6,5.8,40,0.00,,---,0.00,VWS V14.01,2013-11-17 04:46:00,
2013-11-16 21:48:00,30.2,8.8,29.50,SSW,213,5.8,6.3,40,0.00,,---,0.00,VWS V14.01,2013-11-17 04:48:00,
2013-11-16 21:50:00,30.2,8.8,29.50,SSW,194,2.7,3.6,40,0.00,,---,0.00,VWS V14.01,2013-11-17 04:50:00,
2013-11-16 21:51:00,30.2,8.8,29.50,SSW,197,2.7,3.6,40,0.00,,---,0.00,VWS V14.01,2013-11-17 04:51:00,
2013-11-16 21:53:00,30.2,8.8,29.50,SW,227,2.7,4.0,40,0.00,,---,0.00,VWS V14.01,2013-11-17 04:53:00,
2013-11-16 21:55:00,30.2,9.4,29.50,SSW,203,4.9,4.9,41,0.00,,---,0.00,VWS V14.01,2013-11-17 04:55:00,
2013-11-16 21:56:00,30.0,9.2,29.50,SSW,203,3.1,3.1,41,0.00,,---,0.00,VWS V14.01,2013-11-17 04:56:00,
2013-11-16 21:57:00,30.0,9.2,29.50,SW,233,2.7,3.1,41,0.00,,---,0.00,VWS V14.01,2013-11-17 04:57:00,
2013-11-16 21:58:00,30.0,8.1,29.50,West,263,5.4,5.8,39,0.00,,---,0.00,VWS V14.01,2013-11-17 04:58:00,
2013-11-16 22:00:00,30.2,7.1,29.53,SSW,213,3.6,3.6,37,0.00,,,0.00,VWS V15.00,2013-11-17 05:00:00,
2013-11-16 22:01:00,30.0,8.6,29.50,SSW,213,5.4,5.4,40,0.00,,---,0.00,VWS V14.01,2013-11-17 05:01:00,
2013-11-16 22:06:00,30.0,9.2,29.50,SSW,208,2.7,4.0,41,0.00,,---,0.00,VWS V14.01,2013-11-17 05:06:00,
2013-11-16 22:11:00,30.0,8.6,29.50,SSW,202,3.6,3.6,40,0.00,,---,0.00,VWS V14.01,2013-11-17 05:11:00,
2013-11-16 22:12:00,30.0,8.6,29.50,WSW,243,2.7,5.4,40,0.00,,---,0.00,VWS V14.01,2013-11-17 05:12:00,
2013-11-16 22:15:00,29.8,6.2,29.53,SSW,206,3.1,3.6,36,0.00,,,0.00,VWS V15.00,2013-11-17 05:15:00,
2013-11-16 22:16:00,30.2,8.2,29.50,SSW,205,5.8,5.8,39,0.00,,---,0.00,VWS V14.01,2013-11-17 05:16:00,
2013-11-16 22:17:00,30.2,8.2,29.50,South,184,3.1,3.6,39,0.00,,---,0.00,VWS V14.01,2013-11-17 05:17:00,
2013-11-16 22:21:00,30.2,7.7,29.50,SSW,194,3.1,4.0,38,0.00,,---,0.00,VWS V14.01,2013-11-17 05:21:00,
2013-11-16 22:22:00,30.2,7.7,29.50,SW,221,2.7,2.7,38,0.00,,---,0.00,VWS V14.01,2013-11-17 05:22:00,
2013-11-16 22:23:00,30.2,8.2,29.50,SW,222,3.1,3.6,39,0.00,,---,0.00,VWS V14.01,2013-11-17 05:23:00,
2013-11-16 22:26:00,30.2,7.7,29.50,WSW,244,0.0,0.0,38,0.00,,---,0.00,VWS V14.01,2013-11-17 05:26:00,
2013-11-16 22:27:00,30.2,7.7,29.50,SW,214,3.6,3.6,38,0.00,,---,0.00,VWS V14.01,2013-11-17 05:27:00,
2013-11-16 22:28:00,30.2,7.7,29.50,SW,214,3.6,3.6,38,0.00,,---,0.00,VWS V14.01,2013-11-17 05:28:00,
2013-11-16 22:30:00,29.5,5.8,29.53,WSW,240,2.7,2.7,36,0.00,,,0.00,VWS V15.00,2013-11-17 05:30:00,
2013-11-16 22:31:00,30.2,7.1,29.50,SSW,205,0.0,0.0,37,0.00,,---,0.00,VWS V14.01,2013-11-17 05:31:00,
2013-11-16 22:32:00,30.4,7.2,29.50,SW,230,0.0,0.0,37,0.00,,---,0.00,VWS V14.01,2013-11-17 05:32:00,
2013-11-16 22:33:00,30.4,7.2,29.50,SW,230,0.0,0.0,37,0.00,,---,0.00,VWS V14.01,2013-11-17 05:33:00,
2013-11-16 22:36:00,30.4,6.6,29.50,WSW,258,3.1,3.1,36,0.00,,---,0.00,VWS V14.01,2013-11-17 05:36:00,
2013-11-16 22:37:00,30.4,6.6,29.50,WSW,258,3.1,3.1,36,0.00,,---,0.00,VWS V14.01,2013-11-17 05:37:00,
2013-11-16 22:38:00,30.4,7.2,29.50,SSW,213,2.7,3.6,37,0.00,,---,0.00,VWS V14.01,2013-11-17 05:38:00,
2013-11-16 22:39:00,30.2,6.5,29.50,SSW,204,5.8,5.8,36,0.00,,---,0.00,VWS V14.01,2013-11-17 05:39:00,
2013-11-16 22:41:00,30.4,6.6,29.50,SW,233,2.7,2.7,36,0.00,,---,0.00,VWS V14.01,2013-11-17 05:41:00,
2013-11-16 22:42:00,30.4,6.6,29.50,WSW,256,4.0,4.0,36,0.00,,---,0.00,VWS V14.01,2013-11-17 05:42:00,
2013-11-16 22:43:00,30.6,6.8,29.50,WSW,255,3.1,3.1,36,0.00,,---,0.00,VWS V14.01,2013-11-17 05:43:00,
2013-11-16 22:44:00,30.6,6.8,29.50,WSW,255,2.7,3.6,36,0.00,,---,0.00,VWS V14.01,2013-11-17 05:44:00,
2013-11-16 22:45:00,29.1,5.5,29.53,SSW,212,3.6,5.4,36,0.00,,,0.00,VWS V15.00,2013-11-17 05:45:00,
2013-11-16 22:47:00,30.6,6.8,29.53,SSW,209,3.6,5.4,36,0.00,,---,0.00,VWS V14.01,2013-11-17 05:47:00,
2013-11-16 22:48:00,30.6,6.8,29.53,SW,235,3.1,3.6,36,0.00,,---,0.00,VWS V14.01,2013-11-17 05:48:00,
2013-11-16 22:49:00,30.6,6.8,29.53,SW,217,2.7,3.6,36,0.00,,---,0.00,VWS V14.01,2013-11-17 05:49:00,
2013-11-16 22:52:00,30.6,6.8,29.53,SSW,209,3.6,3.6,36,0.00,,---,0.00,VWS V14.01,2013-11-17 05:52:00,
2013-11-16 22:53:00,30.4,6.6,29.53,SSW,209,2.7,2.7,36,0.00,,---,0.00,VWS V14.01,2013-11-17 05:53:00,
2013-11-16 22:54:00,30.4,6.6,29.53,SSW,210,3.6,3.6,36,0.00,,---,0.00,VWS V14.01,2013-11-17 05:54:00,
2013-11-16 22:57:00,30.2,7.1,29.53,SSW,212,4.5,4.9,37,0.00,,---,0.00,VWS V14.01,2013-11-17 05:57:00,
2013-11-16 22:58:00,30.2,6.5,29.53,SW,232,4.0,5.8,36,0.00,,---,0.00,VWS V14.01,2013-11-17 05:58:00,
2013-11-16 22:59:00,30.2,6.5,29.53,SSW,212,3.1,4.0,36,0.00,,---,0.00,VWS V14.01,2013-11-17 05:59:00,
2013-11-16 23:00:00,29.5,5.2,29.53,WSW,256,5.4,7.6,35,0.00,,,0.00,VWS V15.00,2013-11-17 06:00:00,
2013-11-16 23:02:00,30.2,6.5,29.53,SSW,205,5.8,5.8,36,0.00,,---,0.00,VWS V14.01,2013-11-17 06:02:00,
2013-11-16 23:03:00,30.2,7.1,29.53,SSW,207,4.9,4.9,37,0.00,,---,0.00,VWS V14.01,2013-11-17 06:03:00,
2013-11-16 23:04:00,30.0,6.9,29.53,SSW,208,4.0,5.4,37,0.00,,---,0.00,VWS V14.01,2013-11-17 06:04:00,
2013-11-16 23:05:00,30.0,6.9,29.53,SSW,209,3.6,4.0,37,0.00,,---,0.00,VWS V14.01,2013-11-17 06:05:00,
2013-11-16 23:07:00,30.0,6.9,29.53,SSW,203,4.0,4.9,37,0.00,,---,0.00,VWS V14.01,2013-11-17 06:07:00,
2013-11-16 23:09:00,30.0,6.3,29.53,SW,214,4.0,5.4,36,0.00,,---,0.00,VWS V14.01,2013-11-17 06:09:00,
2013-11-16 23:10:00,30.0,6.9,29.53,SW,216,3.6,4.0,37,0.00,,---,0.00,VWS V14.01,2013-11-17 06:10:00,
2013-11-16 23:12:00,29.8,6.8,29.53,SSW,213,3.6,3.6,37,0.00,,---,0.00,VWS V14.01,2013-11-17 06:12:00,
2013-11-16 23:15:00,29.8,6.2,29.53,SSW,199,3.6,4.0,36,0.00,,---,0.00,VWS V14.01,2013-11-17 06:15:00,
2013-11-16 23:16:00,29.8,6.8,29.53,SW,219,3.6,3.6,37,0.00,,---,0.00,VWS V14.01,2013-11-17 06:16:00,
2013-11-16 23:17:00,29.8,6.8,29.53,SW,236,2.7,2.7,37,0.00,,---,0.00,VWS V14.01,2013-11-17 06:17:00,
2013-11-16 23:20:00,29.7,6.6,29.53,SW,216,2.7,2.7,37,0.00,,---,0.00,VWS V14.01,2013-11-17 06:20:00,
2013-11-16 23:21:00,29.7,6.6,29.53,SSW,210,3.6,3.6,37,0.00,,---,0.00,VWS V14.01,2013-11-17 06:21:00,
2013-11-16 23:22:00,29.5,6.4,29.53,SSW,211,2.7,2.7,37,0.00,,---,0.00,VWS V14.01,2013-11-17 06:22:00,
2013-11-16 23:25:00,29.5,5.8,29.53,SW,215,3.6,4.9,36,0.00,,---,0.00,VWS V14.01,2013-11-17 06:25:00,
2013-11-16 23:26:00,29.5,5.8,29.53,SSW,202,3.1,6.3,36,0.00,,---,0.00,VWS V14.01,2013-11-17 06:26:00,
2013-11-16 23:27:00,29.5,5.8,29.53,SW,234,4.0,4.0,36,0.00,,---,0.00,VWS V14.01,2013-11-17 06:27:00,
2013-11-16 23:30:00,29.5,5.8,29.53,WSW,240,3.1,3.1,36,0.00,,---,0.00,VWS V14.01,2013-11-17 06:30:00,
2013-11-16 23:31:00,29.5,5.8,29.53,WSW,240,2.2,3.1,36,0.00,,---,0.00,VWS V14.01,2013-11-17 06:31:00,
2013-11-16 23:32:00,29.3,5.7,29.53,SSW,198,3.6,3.6,36,0.00,,---,0.00,VWS V14.01,2013-11-17 06:32:00,
2013-11-16 23:35:00,29.3,5.7,29.53,SW,226,2.2,2.7,36,0.00,,---,0.00,VWS V14.01,2013-11-17 06:35:00,
2013-11-16 23:36:00,29.3,5.7,29.53,SW,226,3.1,3.1,36,0.00,,---,0.00,VWS V14.01,2013-11-17 06:36:00,
2013-11-16 23:38:00,29.1,5.5,29.53,SW,223,2.7,3.6,36,0.00,,---,0.00,VWS V14.01,2013-11-17 06:38:00,
2013-11-16 23:40:00,29.1,5.5,29.53,SSW,210,3.6,4.0,36,0.00,,---,0.00,VWS V14.01,2013-11-17 06:40:00,
2013-11-16 23:41:00,29.1,5.5,29.53,SSW,212,4.0,4.9,36,0.00,,---,0.00,VWS V14.01,2013-11-17 06:41:00,
2013-11-16 23:42:00,29.1,5.5,29.53,SSW,211,4.0,5.4,36,0.00,,---,0.00,VWS V14.01,2013-11-17 06:42:00,
2013-11-16 23:43:00,29.1,5.5,29.53,SSW,207,4.9,5.4,36,0.00,,---,0.00,VWS V14.01,2013-11-17 06:43:00,
2013-11-16 23:45:00,29.1,5.5,29.53,SSW,207,5.8,5.8,36,0.00,,---,0.00,VWS V14.01,2013-11-17 06:45:00,
2013-11-16 23:46:00,29.1,5.5,29.53,SSW,207,5.8,5.8,36,0.00,,---,0.00,VWS V14.01,2013-11-17 06:46:00,
2013-11-16 23:47:00,29.1,5.5,29.53,SW,222,4.9,5.8,36,0.00,,---,0.00,VWS V14.01,2013-11-17 06:47:00,
2013-11-16 23:48:00,29.3,5.7,29.53,SSW,202,6.3,6.3,36,0.00,,---,0.00,VWS V14.01,2013-11-17 06:48:00,
2013-11-16 23:51:00,29.3,5.1,29.53,SSW,203,6.7,6.7,35,0.00,,---,0.00,VWS V14.01,2013-11-17 06:51:00,
2013-11-16 23:52:00,29.5,5.2,29.53,SSW,208,5.4,5.4,35,0.00,,---,0.00,VWS V14.01,2013-11-17 06:52:00,
2013-11-16 23:53:00,29.5,5.2,29.53,SSW,212,5.4,5.8,35,0.00,,---,0.00,VWS V14.01,2013-11-17 06:53:00,
2013-11-16 23:56:00,29.5,5.2,29.53,SSW,210,5.4,5.8,35,0.00,,---,0.00,VWS V14.01,2013-11-17 06:56:00,
2013-11-16 23:57:00,29.5,5.2,29.53,South,190,5.4,5.4,35,0.00,,---,0.00,VWS V14.01,2013-11-17 06:57:00,
2013-11-16 23:58:00,29.5,5.2,29.53,SSW,208,4.9,6.3,35,0.00,,---,0.00,VWS V14.01,2013-11-17 06:58:00,